<?xml version="1.0" encoding="UTF-8" standalone="no" ?>
<gpx xmlns="http://www.topografix.com/GPX/1/1" xmlns:xsi="http://www.w3.org/2001/XMLSchema-instance" xsi:schemaLocation="http://www.topografix.com/GPX/1/1 http://www.topografix.com/GPX/1/1/gpx.xsd" version="1.1" creator="VisuGPX - https://www.visugpx.com">
  <metadata>
    <name>2019-01-17-46-trespoux</name>
    <desc><![CDATA[Randonnée d'environ 10km pour un peu plus de 300m de dénivelé positif, un circuit sympathique qui vous mène du plateau au fond de la combe. Seule difficulté la remontée au plateau pas très longue mais avec un dernier rempart plutôt coton]]></desc>
  </metadata>
  <trk>
    <name><![CDATA[Tracé 17 janv. 2019 14:03:25]]></name>
    <trkseg>
      <trkpt lat="44.41497" lon="1.37137">
        <ele>294.71453333333</ele>
        <time>2019-01-17T13:03:25Z</time>
      </trkpt>
      <trkpt lat="44.41494" lon="1.37147">
        <ele>286.4141152</ele>
        <time>2019-01-17T13:03:45Z</time>
      </trkpt>
      <trkpt lat="44.41491" lon="1.37158">
        <ele>287.5136776</ele>
        <time>2019-01-17T13:03:56Z</time>
      </trkpt>
      <trkpt lat="44.41482" lon="1.37163">
        <ele>288.513464</ele>
        <time>2019-01-17T13:04:06Z</time>
      </trkpt>
      <trkpt lat="44.41474" lon="1.37167">
        <ele>288.7133348</ele>
        <time>2019-01-17T13:04:14Z</time>
      </trkpt>
      <trkpt lat="44.41467" lon="1.37167">
        <ele>288.3133072</ele>
        <time>2019-01-17T13:04:23Z</time>
      </trkpt>
      <trkpt lat="44.41458" lon="1.37169">
        <ele>288.5132224</ele>
        <time>2019-01-17T13:04:32Z</time>
      </trkpt>
      <trkpt lat="44.41445" lon="1.37184">
        <ele>288.2126276</ele>
        <time>2019-01-17T13:04:37Z</time>
      </trkpt>
      <trkpt lat="44.41439" lon="1.37191">
        <ele>288.4123764</ele>
        <time>2019-01-17T13:04:48Z</time>
      </trkpt>
      <trkpt lat="44.41431" lon="1.37195">
        <ele>288.4122108</ele>
        <time>2019-01-17T13:04:57Z</time>
      </trkpt>
      <trkpt lat="44.41425" lon="1.37197">
        <ele>288.3121172</ele>
        <time>2019-01-17T13:05:05Z</time>
      </trkpt>
      <trkpt lat="44.41418" lon="1.37199">
        <ele>288.6120412</ele>
        <time>2019-01-17T13:05:09Z</time>
      </trkpt>
      <trkpt lat="44.41408" lon="1.37207">
        <ele>289.5117056</ele>
        <time>2019-01-17T13:05:14Z</time>
      </trkpt>
      <trkpt lat="44.41403" lon="1.37213">
        <ele>289.6114768</ele>
        <time>2019-01-17T13:05:18Z</time>
      </trkpt>
      <trkpt lat="44.41399" lon="1.37221">
        <ele>289.0111604</ele>
        <time>2019-01-17T13:05:22Z</time>
      </trkpt>
      <trkpt lat="44.41398" lon="1.37232">
        <ele>288.0107404</ele>
        <time>2019-01-17T13:05:27Z</time>
      </trkpt>
      <trkpt lat="44.41398" lon="1.37243">
        <ele>286.81027</ele>
        <time>2019-01-17T13:05:33Z</time>
      </trkpt>
      <trkpt lat="44.41398" lon="1.37256">
        <ele>285.8097676</ele>
        <time>2019-01-17T13:05:38Z</time>
      </trkpt>
      <trkpt lat="44.41398" lon="1.37268">
        <ele>284.8092756</ele>
        <time>2019-01-17T13:05:45Z</time>
      </trkpt>
      <trkpt lat="44.41398" lon="1.37278">
        <ele>283.9088912</ele>
        <time>2019-01-17T13:05:51Z</time>
      </trkpt>
      <trkpt lat="44.41398" lon="1.37289">
        <ele>283.3084368</ele>
        <time>2019-01-17T13:05:58Z</time>
      </trkpt>
      <trkpt lat="44.414" lon="1.373">
        <ele>282.6079896</ele>
        <time>2019-01-17T13:06:04Z</time>
      </trkpt>
      <trkpt lat="44.41401" lon="1.37311">
        <ele>281.9075796</ele>
        <time>2019-01-17T13:06:10Z</time>
      </trkpt>
      <trkpt lat="44.41403" lon="1.37321">
        <ele>281.107158</ele>
        <time>2019-01-17T13:06:18Z</time>
      </trkpt>
      <trkpt lat="44.41405" lon="1.3733">
        <ele>280.606794</ele>
        <time>2019-01-17T13:06:24Z</time>
      </trkpt>
      <trkpt lat="44.41405" lon="1.37343">
        <ele>279.906294</ele>
        <time>2019-01-17T13:06:32Z</time>
      </trkpt>
      <trkpt lat="44.41408" lon="1.37354">
        <ele>279.6058272</ele>
        <time>2019-01-17T13:06:40Z</time>
      </trkpt>
      <trkpt lat="44.41411" lon="1.37365">
        <ele>279.005418</ele>
        <time>2019-01-17T13:06:47Z</time>
      </trkpt>
      <trkpt lat="44.41415" lon="1.37374">
        <ele>278.4050264</ele>
        <time>2019-01-17T13:06:53Z</time>
      </trkpt>
      <trkpt lat="44.41416" lon="1.37387">
        <ele>277.304532</ele>
        <time>2019-01-17T13:07:00Z</time>
      </trkpt>
      <trkpt lat="44.41417" lon="1.37397">
        <ele>276.6041328</ele>
        <time>2019-01-17T13:07:06Z</time>
      </trkpt>
      <trkpt lat="44.41418" lon="1.37407">
        <ele>276.103726</ele>
        <time>2019-01-17T13:07:13Z</time>
      </trkpt>
      <trkpt lat="44.41421" lon="1.37418">
        <ele>275.7032784</ele>
        <time>2019-01-17T13:07:21Z</time>
      </trkpt>
      <trkpt lat="44.41423" lon="1.37428">
        <ele>275.5028964</ele>
        <time>2019-01-17T13:07:27Z</time>
      </trkpt>
      <trkpt lat="44.41425" lon="1.37439">
        <ele>274.90243</ele>
        <time>2019-01-17T13:07:34Z</time>
      </trkpt>
      <trkpt lat="44.41427" lon="1.37451">
        <ele>274.201956</ele>
        <time>2019-01-17T13:07:41Z</time>
      </trkpt>
      <trkpt lat="44.41427" lon="1.37462">
        <ele>273.7015164</ele>
        <time>2019-01-17T13:07:48Z</time>
      </trkpt>
      <trkpt lat="44.41429" lon="1.37472">
        <ele>273.301114</ele>
        <time>2019-01-17T13:07:54Z</time>
      </trkpt>
      <trkpt lat="44.41432" lon="1.37483">
        <ele>273.0006728</ele>
        <time>2019-01-17T13:07:59Z</time>
      </trkpt>
      <trkpt lat="44.41435" lon="1.37492">
        <ele>272.4003076</ele>
        <time>2019-01-17T13:08:05Z</time>
      </trkpt>
      <trkpt lat="44.41437" lon="1.37502">
        <ele>271.0999084</ele>
        <time>2019-01-17T13:08:12Z</time>
      </trkpt>
      <trkpt lat="44.41433" lon="1.37513">
        <ele>269.8994896</ele>
        <time>2019-01-17T13:08:20Z</time>
      </trkpt>
      <trkpt lat="44.41429" lon="1.37523">
        <ele>269.4990904</ele>
        <time>2019-01-17T13:08:26Z</time>
      </trkpt>
      <trkpt lat="44.41427" lon="1.37533">
        <ele>268.7986676</ele>
        <time>2019-01-17T13:08:33Z</time>
      </trkpt>
      <trkpt lat="44.41424" lon="1.37545">
        <ele>268.0982012</ele>
        <time>2019-01-17T13:08:40Z</time>
      </trkpt>
      <trkpt lat="44.41419" lon="1.37556">
        <ele>264.9977788</ele>
        <time>2019-01-17T13:08:47Z</time>
      </trkpt>
      <trkpt lat="44.41417" lon="1.37566">
        <ele>256.7973576</ele>
        <time>2019-01-17T13:08:52Z</time>
      </trkpt>
      <trkpt lat="44.41412" lon="1.37573">
        <ele>252.99707</ele>
        <time>2019-01-17T13:08:57Z</time>
      </trkpt>
      <trkpt lat="44.41407" lon="1.37582">
        <ele>252.9967096</ele>
        <time>2019-01-17T13:09:03Z</time>
      </trkpt>
      <trkpt lat="44.41405" lon="1.37591">
        <ele>254.5963736</ele>
        <time>2019-01-17T13:09:07Z</time>
      </trkpt>
      <trkpt lat="44.41403" lon="1.37605">
        <ele>256.4958076</ele>
        <time>2019-01-17T13:09:12Z</time>
      </trkpt>
      <trkpt lat="44.41399" lon="1.37616">
        <ele>261.4953804</ele>
        <time>2019-01-17T13:09:16Z</time>
      </trkpt>
      <trkpt lat="44.41395" lon="1.37623">
        <ele>277.1950844</ele>
        <time>2019-01-17T13:09:26Z</time>
      </trkpt>
      <trkpt lat="44.41389" lon="1.3763">
        <ele>277.3947964</ele>
        <time>2019-01-17T13:09:33Z</time>
      </trkpt>
      <trkpt lat="44.41382" lon="1.37649">
        <ele>328.6</ele>
        <time>2019-01-17T13:09:38Z</time>
      </trkpt>
      <trkpt lat="44.41384" lon="1.37635">
        <ele>272.4946176</ele>
        <time>2019-01-17T13:09:42Z</time>
      </trkpt>
      <trkpt lat="44.41379" lon="1.37643">
        <ele>272.39428</ele>
        <time>2019-01-17T13:09:51Z</time>
      </trkpt>
      <trkpt lat="44.41373" lon="1.37652">
        <ele>270.9939148</ele>
        <time>2019-01-17T13:09:59Z</time>
      </trkpt>
      <trkpt lat="44.41368" lon="1.37661">
        <ele>270.9935524</ele>
        <time>2019-01-17T13:10:07Z</time>
      </trkpt>
      <trkpt lat="44.41363" lon="1.37667">
        <ele>270.5933228</ele>
        <time>2019-01-17T13:10:13Z</time>
      </trkpt>
      <trkpt lat="44.41358" lon="1.37675">
        <ele>272.7930128</ele>
        <time>2019-01-17T13:10:19Z</time>
      </trkpt>
      <trkpt lat="44.41353" lon="1.37684">
        <ele>274.1926544</ele>
        <time>2019-01-17T13:10:29Z</time>
      </trkpt>
      <trkpt lat="44.41345" lon="1.3769">
        <ele>272.8924216</ele>
        <time>2019-01-17T13:10:37Z</time>
      </trkpt>
      <trkpt lat="44.41339" lon="1.37694">
        <ele>272.7922304</ele>
        <time>2019-01-17T13:10:42Z</time>
      </trkpt>
      <trkpt lat="44.41332" lon="1.377">
        <ele>273.2920064</ele>
        <time>2019-01-17T13:10:48Z</time>
      </trkpt>
      <trkpt lat="44.41324" lon="1.37705">
        <ele>271.1918012</ele>
        <time>2019-01-17T13:10:55Z</time>
      </trkpt>
      <trkpt lat="44.41317" lon="1.37711">
        <ele>267.2915712</ele>
        <time>2019-01-17T13:11:00Z</time>
      </trkpt>
      <trkpt lat="44.41309" lon="1.37715">
        <ele>267.5913896</ele>
        <time>2019-01-17T13:11:06Z</time>
      </trkpt>
      <trkpt lat="44.41301" lon="1.37721">
        <ele>268.79115</ele>
        <time>2019-01-17T13:11:11Z</time>
      </trkpt>
      <trkpt lat="44.41294" lon="1.37728">
        <ele>270.2908832</ele>
        <time>2019-01-17T13:11:16Z</time>
      </trkpt>
      <trkpt lat="44.41286" lon="1.3773">
        <ele>267.2908</ele>
        <time>2019-01-17T13:11:25Z</time>
      </trkpt>
      <trkpt lat="44.41279" lon="1.37734">
        <ele>266.2906224</ele>
        <time>2019-01-17T13:11:32Z</time>
      </trkpt>
      <trkpt lat="44.41271" lon="1.37741">
        <ele>264.990362</ele>
        <time>2019-01-17T13:11:41Z</time>
      </trkpt>
      <trkpt lat="44.41267" lon="1.37749">
        <ele>265.89006</ele>
        <time>2019-01-17T13:11:48Z</time>
      </trkpt>
      <trkpt lat="44.41263" lon="1.37755">
        <ele>265.4897872</ele>
        <time>2019-01-17T13:11:52Z</time>
      </trkpt>
      <trkpt lat="44.41258" lon="1.37764">
        <ele>266.9894416</ele>
        <time>2019-01-17T13:11:58Z</time>
      </trkpt>
      <trkpt lat="44.41255" lon="1.37774">
        <ele>266.689058</ele>
        <time>2019-01-17T13:12:03Z</time>
      </trkpt>
      <trkpt lat="44.41252" lon="1.3778">
        <ele>266.0887904</ele>
        <time>2019-01-17T13:12:06Z</time>
      </trkpt>
      <trkpt lat="44.41248" lon="1.37789">
        <ele>265.8884364</ele>
        <time>2019-01-17T13:12:10Z</time>
      </trkpt>
      <trkpt lat="44.41243" lon="1.37795">
        <ele>265.5881912</ele>
        <time>2019-01-17T13:12:14Z</time>
      </trkpt>
      <trkpt lat="44.41236" lon="1.37802">
        <ele>267.687926</ele>
        <time>2019-01-17T13:12:19Z</time>
      </trkpt>
      <trkpt lat="44.41229" lon="1.3781">
        <ele>269.0876164</ele>
        <time>2019-01-17T13:12:26Z</time>
      </trkpt>
      <trkpt lat="44.41223" lon="1.37817">
        <ele>269.9873248</ele>
        <time>2019-01-17T13:12:30Z</time>
      </trkpt>
      <trkpt lat="44.41218" lon="1.37826">
        <ele>269.8869776</ele>
        <time>2019-01-17T13:12:37Z</time>
      </trkpt>
      <trkpt lat="44.41214" lon="1.37834">
        <ele>268.3866464</ele>
        <time>2019-01-17T13:12:42Z</time>
      </trkpt>
      <trkpt lat="44.41211" lon="1.37843">
        <ele>267.2862648</ele>
        <time>2019-01-17T13:12:47Z</time>
      </trkpt>
      <trkpt lat="44.41209" lon="1.37854">
        <ele>267.8858256</ele>
        <time>2019-01-17T13:12:53Z</time>
      </trkpt>
      <trkpt lat="44.41208" lon="1.37866">
        <ele>267.2853808</ele>
        <time>2019-01-17T13:13:09Z</time>
      </trkpt>
      <trkpt lat="44.41204" lon="1.37877">
        <ele>264.384928</ele>
        <time>2019-01-17T13:13:17Z</time>
      </trkpt>
      <trkpt lat="44.41201" lon="1.37888">
        <ele>261.7844984</ele>
        <time>2019-01-17T13:13:22Z</time>
      </trkpt>
      <trkpt lat="44.41199" lon="1.37898">
        <ele>259.8840648</ele>
        <time>2019-01-17T13:13:27Z</time>
      </trkpt>
      <trkpt lat="44.41198" lon="1.3791">
        <ele>259.8835916</ele>
        <time>2019-01-17T13:13:32Z</time>
      </trkpt>
      <trkpt lat="44.41196" lon="1.3792">
        <ele>260.3832184</ele>
        <time>2019-01-17T13:13:36Z</time>
      </trkpt>
      <trkpt lat="44.41196" lon="1.37932">
        <ele>261.0827224</ele>
        <time>2019-01-17T13:13:42Z</time>
      </trkpt>
      <trkpt lat="44.41196" lon="1.37943">
        <ele>262.0822788</ele>
        <time>2019-01-17T13:13:48Z</time>
      </trkpt>
      <trkpt lat="44.41194" lon="1.37955">
        <ele>265.0818192</ele>
        <time>2019-01-17T13:13:56Z</time>
      </trkpt>
      <trkpt lat="44.41193" lon="1.37964">
        <ele>267.181436</ele>
        <time>2019-01-17T13:14:03Z</time>
      </trkpt>
      <trkpt lat="44.4119" lon="1.37973">
        <ele>267.2810676</ele>
        <time>2019-01-17T13:14:09Z</time>
      </trkpt>
      <trkpt lat="44.41187" lon="1.37984">
        <ele>265.7806564</ele>
        <time>2019-01-17T13:14:15Z</time>
      </trkpt>
      <trkpt lat="44.41183" lon="1.37994">
        <ele>262.0802264</ele>
        <time>2019-01-17T13:14:20Z</time>
      </trkpt>
      <trkpt lat="44.41181" lon="1.38003">
        <ele>261.979882</ele>
        <time>2019-01-17T13:14:24Z</time>
      </trkpt>
      <trkpt lat="44.4118" lon="1.38015">
        <ele>259.3794192</ele>
        <time>2019-01-17T13:14:29Z</time>
      </trkpt>
      <trkpt lat="44.41179" lon="1.38024">
        <ele>258.9790364</ele>
        <time>2019-01-17T13:14:33Z</time>
      </trkpt>
      <trkpt lat="44.41178" lon="1.38036">
        <ele>259.4785544</ele>
        <time>2019-01-17T13:14:39Z</time>
      </trkpt>
      <trkpt lat="44.41177" lon="1.38046">
        <ele>258.4781488</ele>
        <time>2019-01-17T13:14:45Z</time>
      </trkpt>
      <trkpt lat="44.41176" lon="1.38058">
        <ele>256.3776624</ele>
        <time>2019-01-17T13:14:54Z</time>
      </trkpt>
      <trkpt lat="44.41176" lon="1.3807">
        <ele>256.2772032</ele>
        <time>2019-01-17T13:15:02Z</time>
      </trkpt>
      <trkpt lat="44.41178" lon="1.38081">
        <ele>257.3767468</ele>
        <time>2019-01-17T13:15:08Z</time>
      </trkpt>
      <trkpt lat="44.41179" lon="1.38091">
        <ele>258.4763736</ele>
        <time>2019-01-17T13:15:12Z</time>
      </trkpt>
      <trkpt lat="44.41182" lon="1.38101">
        <ele>260.375946</ele>
        <time>2019-01-17T13:15:18Z</time>
      </trkpt>
      <trkpt lat="44.41182" lon="1.38112">
        <ele>260.0755036</ele>
        <time>2019-01-17T13:15:25Z</time>
      </trkpt>
      <trkpt lat="44.4118" lon="1.38124">
        <ele>261.0750608</ele>
        <time>2019-01-17T13:15:31Z</time>
      </trkpt>
      <trkpt lat="44.41178" lon="1.38135">
        <ele>262.5746024</ele>
        <time>2019-01-17T13:15:37Z</time>
      </trkpt>
      <trkpt lat="44.41177" lon="1.38143">
        <ele>263.6742824</ele>
        <time>2019-01-17T13:15:41Z</time>
      </trkpt>
      <trkpt lat="44.41176" lon="1.38152">
        <ele>264.2739208</ele>
        <time>2019-01-17T13:15:45Z</time>
      </trkpt>
      <trkpt lat="44.41178" lon="1.38163">
        <ele>267.4734684</ele>
        <time>2019-01-17T13:15:52Z</time>
      </trkpt>
      <trkpt lat="44.41184" lon="1.38173">
        <ele>268.9730916</ele>
        <time>2019-01-17T13:15:58Z</time>
      </trkpt>
      <trkpt lat="44.41189" lon="1.3818">
        <ele>267.6727884</ele>
        <time>2019-01-17T13:16:04Z</time>
      </trkpt>
      <trkpt lat="44.41194" lon="1.38189">
        <ele>268.372422</ele>
        <time>2019-01-17T13:16:13Z</time>
      </trkpt>
      <trkpt lat="44.412" lon="1.38198">
        <ele>270.172088</ele>
        <time>2019-01-17T13:16:20Z</time>
      </trkpt>
      <trkpt lat="44.41205" lon="1.38208">
        <ele>269.6716896</ele>
        <time>2019-01-17T13:16:28Z</time>
      </trkpt>
      <trkpt lat="44.41211" lon="1.38216">
        <ele>268.6713536</ele>
        <time>2019-01-17T13:16:34Z</time>
      </trkpt>
      <trkpt lat="44.41216" lon="1.38226">
        <ele>268.9709788</ele>
        <time>2019-01-17T13:16:40Z</time>
      </trkpt>
      <trkpt lat="44.41222" lon="1.38236">
        <ele>269.0705804</ele>
        <time>2019-01-17T13:16:47Z</time>
      </trkpt>
      <trkpt lat="44.41226" lon="1.38244">
        <ele>267.3702556</ele>
        <time>2019-01-17T13:16:53Z</time>
      </trkpt>
      <trkpt lat="44.41231" lon="1.38252">
        <ele>263.06992</ele>
        <time>2019-01-17T13:17:00Z</time>
      </trkpt>
      <trkpt lat="44.41236" lon="1.38261">
        <ele>262.6695636</ele>
        <time>2019-01-17T13:17:07Z</time>
      </trkpt>
      <trkpt lat="44.41242" lon="1.3827">
        <ele>261.4691948</ele>
        <time>2019-01-17T13:17:14Z</time>
      </trkpt>
      <trkpt lat="44.41246" lon="1.38279">
        <ele>260.5688608</ele>
        <time>2019-01-17T13:17:20Z</time>
      </trkpt>
      <trkpt lat="44.41251" lon="1.38289">
        <ele>260.0684384</ele>
        <time>2019-01-17T13:17:28Z</time>
      </trkpt>
      <trkpt lat="44.41253" lon="1.38298">
        <ele>258.9680824</ele>
        <time>2019-01-17T13:17:34Z</time>
      </trkpt>
      <trkpt lat="44.41253" lon="1.3831">
        <ele>253.4675888</ele>
        <time>2019-01-17T13:17:43Z</time>
      </trkpt>
      <trkpt lat="44.41257" lon="1.3832">
        <ele>251.767184</ele>
        <time>2019-01-17T13:17:51Z</time>
      </trkpt>
      <trkpt lat="44.4126" lon="1.38331">
        <ele>248.2667644</ele>
        <time>2019-01-17T13:17:58Z</time>
      </trkpt>
      <trkpt lat="44.41265" lon="1.3834">
        <ele>245.666408</ele>
        <time>2019-01-17T13:18:03Z</time>
      </trkpt>
      <trkpt lat="44.4127" lon="1.3835">
        <ele>242.1660192</ele>
        <time>2019-01-17T13:18:10Z</time>
      </trkpt>
      <trkpt lat="44.41276" lon="1.38357">
        <ele>241.4657112</ele>
        <time>2019-01-17T13:18:16Z</time>
      </trkpt>
      <trkpt lat="44.41282" lon="1.38365">
        <ele>241.5654148</ele>
        <time>2019-01-17T13:18:22Z</time>
      </trkpt>
      <trkpt lat="44.41289" lon="1.38373">
        <ele>240.0650888</ele>
        <time>2019-01-17T13:18:28Z</time>
      </trkpt>
      <trkpt lat="44.41295" lon="1.3838">
        <ele>238.0647916</ele>
        <time>2019-01-17T13:18:35Z</time>
      </trkpt>
      <trkpt lat="44.41302" lon="1.38388">
        <ele>235.2644908</ele>
        <time>2019-01-17T13:18:41Z</time>
      </trkpt>
      <trkpt lat="44.41308" lon="1.38395">
        <ele>235.2642104</ele>
        <time>2019-01-17T13:18:47Z</time>
      </trkpt>
      <trkpt lat="44.41315" lon="1.38402">
        <ele>238.063922</ele>
        <time>2019-01-17T13:18:53Z</time>
      </trkpt>
      <trkpt lat="44.4132" lon="1.38408">
        <ele>240.063662</ele>
        <time>2019-01-17T13:18:57Z</time>
      </trkpt>
      <trkpt lat="44.41326" lon="1.38417">
        <ele>243.663336</ele>
        <time>2019-01-17T13:19:04Z</time>
      </trkpt>
      <trkpt lat="44.41331" lon="1.38423">
        <ele>243.5630944</ele>
        <time>2019-01-17T13:19:08Z</time>
      </trkpt>
      <trkpt lat="44.41338" lon="1.3843">
        <ele>242.8628132</ele>
        <time>2019-01-17T13:19:15Z</time>
      </trkpt>
      <trkpt lat="44.41343" lon="1.38434">
        <ele>240.7626364</ele>
        <time>2019-01-17T13:19:22Z</time>
      </trkpt>
      <trkpt lat="44.4135" lon="1.38443">
        <ele>238.1622992</ele>
        <time>2019-01-17T13:19:29Z</time>
      </trkpt>
      <trkpt lat="44.41356" lon="1.3845">
        <ele>236.4619824</ele>
        <time>2019-01-17T13:19:35Z</time>
      </trkpt>
      <trkpt lat="44.4136" lon="1.38456">
        <ele>234.6617652</ele>
        <time>2019-01-17T13:19:39Z</time>
      </trkpt>
      <trkpt lat="44.41367" lon="1.38461">
        <ele>234.3615508</ele>
        <time>2019-01-17T13:19:44Z</time>
      </trkpt>
      <trkpt lat="44.41373" lon="1.38466">
        <ele>234.26137</ele>
        <time>2019-01-17T13:19:48Z</time>
      </trkpt>
      <trkpt lat="44.41381" lon="1.38472">
        <ele>235.3611112</ele>
        <time>2019-01-17T13:19:54Z</time>
      </trkpt>
      <trkpt lat="44.41386" lon="1.38479">
        <ele>234.0608296</ele>
        <time>2019-01-17T13:19:59Z</time>
      </trkpt>
      <trkpt lat="44.41391" lon="1.38489">
        <ele>230.8604288</ele>
        <time>2019-01-17T13:20:06Z</time>
      </trkpt>
      <trkpt lat="44.41396" lon="1.38498">
        <ele>224.7600756</ele>
        <time>2019-01-17T13:20:13Z</time>
      </trkpt>
      <trkpt lat="44.414" lon="1.38508">
        <ele>223.85968</ele>
        <time>2019-01-17T13:20:20Z</time>
      </trkpt>
      <trkpt lat="44.41404" lon="1.38519">
        <ele>223.25923</ele>
        <time>2019-01-17T13:20:27Z</time>
      </trkpt>
      <trkpt lat="44.41407" lon="1.38528">
        <ele>221.8588732</ele>
        <time>2019-01-17T13:20:33Z</time>
      </trkpt>
      <trkpt lat="44.41413" lon="1.38534">
        <ele>219.7586308</ele>
        <time>2019-01-17T13:20:39Z</time>
      </trkpt>
      <trkpt lat="44.41423" lon="1.38535">
        <ele>222.958618</ele>
        <time>2019-01-17T13:20:44Z</time>
      </trkpt>
      <trkpt lat="44.4143" lon="1.38531">
        <ele>225.6587764</ele>
        <time>2019-01-17T13:20:48Z</time>
      </trkpt>
      <trkpt lat="44.41441" lon="1.38526">
        <ele>227.858962</ele>
        <time>2019-01-17T13:20:53Z</time>
      </trkpt>
      <trkpt lat="44.41448" lon="1.38524">
        <ele>227.7590556</ele>
        <time>2019-01-17T13:20:57Z</time>
      </trkpt>
      <trkpt lat="44.41454" lon="1.38515">
        <ele>227.159398</ele>
        <time>2019-01-17T13:21:04Z</time>
      </trkpt>
      <trkpt lat="44.41459" lon="1.38505">
        <ele>227.0597948</ele>
        <time>2019-01-17T13:21:11Z</time>
      </trkpt>
      <trkpt lat="44.41463" lon="1.38494">
        <ele>214.1602252</ele>
        <time>2019-01-17T13:21:18Z</time>
      </trkpt>
      <trkpt lat="44.41465" lon="1.38483">
        <ele>188.660678</ele>
        <time>2019-01-17T13:21:32Z</time>
      </trkpt>
      <trkpt lat="44.41462" lon="1.38475">
        <ele>190.1609872</ele>
        <time>2019-01-17T13:21:36Z</time>
      </trkpt>
      <trkpt lat="44.4146" lon="1.38464">
        <ele>190.761452</ele>
        <time>2019-01-17T13:21:44Z</time>
      </trkpt>
      <trkpt lat="44.41468" lon="1.38467">
        <ele>207.0613092</ele>
        <time>2019-01-17T13:22:15Z</time>
      </trkpt>
      <trkpt lat="44.41474" lon="1.38475">
        <ele>208.2610076</ele>
        <time>2019-01-17T13:22:25Z</time>
      </trkpt>
      <trkpt lat="44.41479" lon="1.38483">
        <ele>206.760694</ele>
        <time>2019-01-17T13:22:31Z</time>
      </trkpt>
      <trkpt lat="44.41485" lon="1.3849">
        <ele>208.7604144</ele>
        <time>2019-01-17T13:22:37Z</time>
      </trkpt>
      <trkpt lat="44.41492" lon="1.38494">
        <ele>208.9602272</ele>
        <time>2019-01-17T13:22:45Z</time>
      </trkpt>
      <trkpt lat="44.41498" lon="1.38502">
        <ele>208.0599056</ele>
        <time>2019-01-17T13:22:57Z</time>
      </trkpt>
      <trkpt lat="44.41502" lon="1.38513">
        <ele>211.7594744</ele>
        <time>2019-01-17T13:23:06Z</time>
      </trkpt>
      <trkpt lat="44.41503" lon="1.38525">
        <ele>215.2590024</ele>
        <time>2019-01-17T13:23:17Z</time>
      </trkpt>
      <trkpt lat="44.41505" lon="1.38534">
        <ele>212.45863</ele>
        <time>2019-01-17T13:23:25Z</time>
      </trkpt>
      <trkpt lat="44.41508" lon="1.38545">
        <ele>208.8582036</ele>
        <time>2019-01-17T13:23:31Z</time>
      </trkpt>
      <trkpt lat="44.41512" lon="1.38556">
        <ele>190.2577692</ele>
        <time>2019-01-17T13:23:48Z</time>
      </trkpt>
      <trkpt lat="44.41514" lon="1.38568">
        <ele>188.3572868</ele>
        <time>2019-01-17T13:23:59Z</time>
      </trkpt>
      <trkpt lat="44.41518" lon="1.38578">
        <ele>180.6568704</ele>
        <time>2019-01-17T13:24:21Z</time>
      </trkpt>
      <trkpt lat="44.41525" lon="1.3858">
        <ele>186.656798</ele>
        <time>2019-01-17T13:24:29Z</time>
      </trkpt>
      <trkpt lat="44.41534" lon="1.38583">
        <ele>192.75668</ele>
        <time>2019-01-17T13:24:59Z</time>
      </trkpt>
      <trkpt lat="44.41542" lon="1.38585">
        <ele>194.85659</ele>
        <time>2019-01-17T13:25:09Z</time>
      </trkpt>
      <trkpt lat="44.41551" lon="1.38584">
        <ele>198.5566584</ele>
        <time>2019-01-17T13:25:24Z</time>
      </trkpt>
      <trkpt lat="44.41556" lon="1.38593">
        <ele>181.6562836</ele>
        <time>2019-01-17T13:26:42Z</time>
      </trkpt>
      <trkpt lat="44.4156" lon="1.38583">
        <ele>184.8566648</ele>
        <time>2019-01-17T13:27:10Z</time>
      </trkpt>
      <trkpt lat="44.41568" lon="1.38577">
        <ele>176.5569408</ele>
        <time>2019-01-17T13:27:14Z</time>
      </trkpt>
      <trkpt lat="44.41567" lon="1.38565">
        <ele>172.7574032</ele>
        <time>2019-01-17T13:27:26Z</time>
      </trkpt>
      <trkpt lat="44.41564" lon="1.38554">
        <ele>176.957856</ele>
        <time>2019-01-17T13:27:32Z</time>
      </trkpt>
      <trkpt lat="44.41571" lon="1.38545">
        <ele>170.2581888</ele>
        <time>2019-01-17T13:27:45Z</time>
      </trkpt>
      <trkpt lat="44.4157" lon="1.38556">
        <ele>187.6577788</ele>
        <time>2019-01-17T13:28:06Z</time>
      </trkpt>
      <trkpt lat="44.41572" lon="1.38565">
        <ele>193.0573852</ele>
        <time>2019-01-17T13:28:12Z</time>
      </trkpt>
      <trkpt lat="44.41573" lon="1.38577">
        <ele>200.8569188</ele>
        <time>2019-01-17T13:28:20Z</time>
      </trkpt>
      <trkpt lat="44.41577" lon="1.38567">
        <ele>206.0573264</ele>
        <time>2019-01-17T13:28:46Z</time>
      </trkpt>
      <trkpt lat="44.41578" lon="1.38555">
        <ele>208.7578012</ele>
        <time>2019-01-17T13:28:57Z</time>
      </trkpt>
      <trkpt lat="44.41577" lon="1.38543">
        <ele>217.258286</ele>
        <time>2019-01-17T13:29:08Z</time>
      </trkpt>
      <trkpt lat="44.41577" lon="1.3853">
        <ele>216.258782</ele>
        <time>2019-01-17T13:29:17Z</time>
      </trkpt>
      <trkpt lat="44.41585" lon="1.38527">
        <ele>225.1589304</ele>
        <time>2019-01-17T13:29:34Z</time>
      </trkpt>
      <trkpt lat="44.41587" lon="1.38537">
        <ele>224.0585408</ele>
        <time>2019-01-17T13:29:42Z</time>
      </trkpt>
      <trkpt lat="44.4159" lon="1.38548">
        <ele>220.858092</ele>
        <time>2019-01-17T13:29:50Z</time>
      </trkpt>
      <trkpt lat="44.41593" lon="1.3856">
        <ele>220.1576164</ele>
        <time>2019-01-17T13:29:57Z</time>
      </trkpt>
      <trkpt lat="44.41595" lon="1.38572">
        <ele>216.2571392</ele>
        <time>2019-01-17T13:30:04Z</time>
      </trkpt>
      <trkpt lat="44.41602" lon="1.38565">
        <ele>207.557386</ele>
        <time>2019-01-17T13:30:28Z</time>
      </trkpt>
      <trkpt lat="44.41602" lon="1.38554">
        <ele>209.5578364</ele>
        <time>2019-01-17T13:30:42Z</time>
      </trkpt>
      <trkpt lat="44.41603" lon="1.38542">
        <ele>214.858302</ele>
        <time>2019-01-17T13:30:56Z</time>
      </trkpt>
      <trkpt lat="44.41601" lon="1.38533">
        <ele>218.6586772</ele>
        <time>2019-01-17T13:31:03Z</time>
      </trkpt>
      <trkpt lat="44.416" lon="1.38521">
        <ele>220.0591524</ele>
        <time>2019-01-17T13:31:11Z</time>
      </trkpt>
      <trkpt lat="44.41608" lon="1.38525">
        <ele>226.2590088</ele>
        <time>2019-01-17T13:31:30Z</time>
      </trkpt>
      <trkpt lat="44.41611" lon="1.38535">
        <ele>227.0586128</ele>
        <time>2019-01-17T13:31:39Z</time>
      </trkpt>
      <trkpt lat="44.41614" lon="1.38546">
        <ele>228.258172</ele>
        <time>2019-01-17T13:31:48Z</time>
      </trkpt>
      <trkpt lat="44.41616" lon="1.38556">
        <ele>231.6577492</ele>
        <time>2019-01-17T13:31:56Z</time>
      </trkpt>
      <trkpt lat="44.41623" lon="1.38563">
        <ele>228.6574736</ele>
        <time>2019-01-17T13:32:07Z</time>
      </trkpt>
      <trkpt lat="44.41628" lon="1.38572">
        <ele>232.6571064</ele>
        <time>2019-01-17T13:32:43Z</time>
      </trkpt>
      <trkpt lat="44.41626" lon="1.38561">
        <ele>243.757578</ele>
        <time>2019-01-17T13:33:04Z</time>
      </trkpt>
      <trkpt lat="44.41624" lon="1.38549">
        <ele>245.9580504</ele>
        <time>2019-01-17T13:33:14Z</time>
      </trkpt>
      <trkpt lat="44.41625" lon="1.38537">
        <ele>242.3585144</ele>
        <time>2019-01-17T13:33:21Z</time>
      </trkpt>
      <trkpt lat="44.41627" lon="1.38525">
        <ele>240.8590112</ele>
        <time>2019-01-17T13:33:30Z</time>
      </trkpt>
      <trkpt lat="44.41629" lon="1.38513">
        <ele>238.45949</ele>
        <time>2019-01-17T13:33:38Z</time>
      </trkpt>
      <trkpt lat="44.41635" lon="1.38504">
        <ele>235.0598424</ele>
        <time>2019-01-17T13:33:44Z</time>
      </trkpt>
      <trkpt lat="44.41643" lon="1.38504">
        <ele>239.4598372</ele>
        <time>2019-01-17T13:34:37Z</time>
      </trkpt>
      <trkpt lat="44.41651" lon="1.385">
        <ele>239.5600176</ele>
        <time>2019-01-17T13:35:01Z</time>
      </trkpt>
      <trkpt lat="44.41642" lon="1.38501">
        <ele>238.6599664</ele>
        <time>2019-01-17T13:36:02Z</time>
      </trkpt>
      <trkpt lat="44.41648" lon="1.38494">
        <ele>239.9602488</ele>
        <time>2019-01-17T13:37:12Z</time>
      </trkpt>
      <trkpt lat="44.41655" lon="1.38486">
        <ele>243.360544</ele>
        <time>2019-01-17T13:37:19Z</time>
      </trkpt>
      <trkpt lat="44.41663" lon="1.38487">
        <ele>243.4605368</ele>
        <time>2019-01-17T13:37:27Z</time>
      </trkpt>
      <trkpt lat="44.41667" lon="1.38496">
        <ele>242.4601428</ele>
        <time>2019-01-17T13:37:35Z</time>
      </trkpt>
      <trkpt lat="44.41671" lon="1.38507">
        <ele>242.659718</ele>
        <time>2019-01-17T13:37:42Z</time>
      </trkpt>
      <trkpt lat="44.41673" lon="1.38518">
        <ele>241.4592832</ele>
        <time>2019-01-17T13:37:49Z</time>
      </trkpt>
      <trkpt lat="44.41676" lon="1.38529">
        <ele>239.7588252</ele>
        <time>2019-01-17T13:37:56Z</time>
      </trkpt>
      <trkpt lat="44.41679" lon="1.3854">
        <ele>241.5584056</ele>
        <time>2019-01-17T13:38:03Z</time>
      </trkpt>
      <trkpt lat="44.41683" lon="1.3855">
        <ele>246.2579864</ele>
        <time>2019-01-17T13:38:11Z</time>
      </trkpt>
      <trkpt lat="44.41688" lon="1.3856">
        <ele>250.457612</ele>
        <time>2019-01-17T13:38:18Z</time>
      </trkpt>
      <trkpt lat="44.41692" lon="1.3857">
        <ele>252.0572016</ele>
        <time>2019-01-17T13:38:27Z</time>
      </trkpt>
      <trkpt lat="44.41696" lon="1.38581">
        <ele>250.6567588</ele>
        <time>2019-01-17T13:38:36Z</time>
      </trkpt>
      <trkpt lat="44.41698" lon="1.3859">
        <ele>250.9563916</ele>
        <time>2019-01-17T13:38:42Z</time>
      </trkpt>
      <trkpt lat="44.41701" lon="1.38599">
        <ele>249.856042</ele>
        <time>2019-01-17T13:38:48Z</time>
      </trkpt>
      <trkpt lat="44.41703" lon="1.3861">
        <ele>245.0556196</ele>
        <time>2019-01-17T13:38:53Z</time>
      </trkpt>
      <trkpt lat="44.41705" lon="1.38619">
        <ele>243.3552408</ele>
        <time>2019-01-17T13:38:57Z</time>
      </trkpt>
      <trkpt lat="44.41708" lon="1.3863">
        <ele>244.3547912</ele>
        <time>2019-01-17T13:39:04Z</time>
      </trkpt>
      <trkpt lat="44.41713" lon="1.38639">
        <ele>245.6544536</ele>
        <time>2019-01-17T13:39:12Z</time>
      </trkpt>
      <trkpt lat="44.4172" lon="1.38639">
        <ele>246.1544292</ele>
        <time>2019-01-17T13:39:18Z</time>
      </trkpt>
      <trkpt lat="44.41728" lon="1.38636">
        <ele>246.5545796</ele>
        <time>2019-01-17T13:39:25Z</time>
      </trkpt>
      <trkpt lat="44.41733" lon="1.38628">
        <ele>243.9548764</ele>
        <time>2019-01-17T13:39:31Z</time>
      </trkpt>
      <trkpt lat="44.4174" lon="1.38623">
        <ele>247.5550668</ele>
        <time>2019-01-17T13:39:38Z</time>
      </trkpt>
      <trkpt lat="44.41747" lon="1.38615">
        <ele>249.7554016</ele>
        <time>2019-01-17T13:39:47Z</time>
      </trkpt>
      <trkpt lat="44.41751" lon="1.38606">
        <ele>248.0557436</ele>
        <time>2019-01-17T13:39:54Z</time>
      </trkpt>
      <trkpt lat="44.41757" lon="1.38599">
        <ele>243.8560484</ele>
        <time>2019-01-17T13:39:59Z</time>
      </trkpt>
      <trkpt lat="44.41763" lon="1.38591">
        <ele>239.75636</ele>
        <time>2019-01-17T13:40:03Z</time>
      </trkpt>
      <trkpt lat="44.41768" lon="1.38584">
        <ele>237.7566324</ele>
        <time>2019-01-17T13:40:11Z</time>
      </trkpt>
      <trkpt lat="44.41775" lon="1.38577">
        <ele>233.1569236</ele>
        <time>2019-01-17T13:40:16Z</time>
      </trkpt>
      <trkpt lat="44.41781" lon="1.38571">
        <ele>234.0571476</ele>
        <time>2019-01-17T13:40:24Z</time>
      </trkpt>
      <trkpt lat="44.41788" lon="1.38569">
        <ele>242.757258</ele>
        <time>2019-01-17T13:40:32Z</time>
      </trkpt>
      <trkpt lat="44.41795" lon="1.38564">
        <ele>242.7574228</ele>
        <time>2019-01-17T13:40:39Z</time>
      </trkpt>
      <trkpt lat="44.41801" lon="1.38559">
        <ele>240.9576408</ele>
        <time>2019-01-17T13:40:45Z</time>
      </trkpt>
      <trkpt lat="44.41809" lon="1.38554">
        <ele>236.6578464</ele>
        <time>2019-01-17T13:40:54Z</time>
      </trkpt>
      <trkpt lat="44.41817" lon="1.38548">
        <ele>235.2580964</ele>
        <time>2019-01-17T13:41:01Z</time>
      </trkpt>
      <trkpt lat="44.41824" lon="1.38541">
        <ele>232.4583628</ele>
        <time>2019-01-17T13:41:10Z</time>
      </trkpt>
      <trkpt lat="44.4183" lon="1.38535">
        <ele>233.4586072</ele>
        <time>2019-01-17T13:41:18Z</time>
      </trkpt>
      <trkpt lat="44.41836" lon="1.38528">
        <ele>231.0589004</ele>
        <time>2019-01-17T13:41:24Z</time>
      </trkpt>
      <trkpt lat="44.41844" lon="1.38523">
        <ele>227.6591004</ele>
        <time>2019-01-17T13:41:31Z</time>
      </trkpt>
      <trkpt lat="44.41851" lon="1.38518">
        <ele>229.0593012</ele>
        <time>2019-01-17T13:41:38Z</time>
      </trkpt>
      <trkpt lat="44.41857" lon="1.38511">
        <ele>231.2595744</ele>
        <time>2019-01-17T13:41:45Z</time>
      </trkpt>
      <trkpt lat="44.41863" lon="1.38504">
        <ele>229.9598344</ele>
        <time>2019-01-17T13:41:51Z</time>
      </trkpt>
      <trkpt lat="44.41869" lon="1.38497">
        <ele>227.9601124</ele>
        <time>2019-01-17T13:41:56Z</time>
      </trkpt>
      <trkpt lat="44.41876" lon="1.38499">
        <ele>227.6600476</ele>
        <time>2019-01-17T13:42:01Z</time>
      </trkpt>
      <trkpt lat="44.41884" lon="1.38501">
        <ele>231.9599472</ele>
        <time>2019-01-17T13:42:08Z</time>
      </trkpt>
      <trkpt lat="44.41892" lon="1.38502">
        <ele>236.059918</ele>
        <time>2019-01-17T13:42:15Z</time>
      </trkpt>
      <trkpt lat="44.41886" lon="1.38493">
        <ele>233.6602736</ele>
        <time>2019-01-17T13:42:35Z</time>
      </trkpt>
      <trkpt lat="44.41878" lon="1.38496">
        <ele>234.6601772</ele>
        <time>2019-01-17T13:42:47Z</time>
      </trkpt>
      <trkpt lat="44.41872" lon="1.38501">
        <ele>232.9599532</ele>
        <time>2019-01-17T13:42:55Z</time>
      </trkpt>
      <trkpt lat="44.41864" lon="1.38498">
        <ele>231.2600732</ele>
        <time>2019-01-17T13:43:03Z</time>
      </trkpt>
      <trkpt lat="44.41864" lon="1.38488">
        <ele>231.4605004</ele>
        <time>2019-01-17T13:43:12Z</time>
      </trkpt>
      <trkpt lat="44.4187" lon="1.3848">
        <ele>228.1607996</ele>
        <time>2019-01-17T13:43:18Z</time>
      </trkpt>
      <trkpt lat="44.41876" lon="1.38474">
        <ele>225.5610524</ele>
        <time>2019-01-17T13:43:24Z</time>
      </trkpt>
      <trkpt lat="44.41883" lon="1.38466">
        <ele>226.361358</ele>
        <time>2019-01-17T13:43:32Z</time>
      </trkpt>
      <trkpt lat="44.41891" lon="1.38469">
        <ele>222.3612516</ele>
        <time>2019-01-17T13:43:41Z</time>
      </trkpt>
      <trkpt lat="44.41899" lon="1.38466">
        <ele>223.461372</ele>
        <time>2019-01-17T13:43:50Z</time>
      </trkpt>
      <trkpt lat="44.41907" lon="1.38462">
        <ele>225.361516</ele>
        <time>2019-01-17T13:44:02Z</time>
      </trkpt>
      <trkpt lat="44.41915" lon="1.38461">
        <ele>225.8615792</ele>
        <time>2019-01-17T13:44:11Z</time>
      </trkpt>
      <trkpt lat="44.41923" lon="1.38462">
        <ele>225.3615352</ele>
        <time>2019-01-17T13:44:18Z</time>
      </trkpt>
      <trkpt lat="44.4193" lon="1.38465">
        <ele>226.2614116</ele>
        <time>2019-01-17T13:44:24Z</time>
      </trkpt>
      <trkpt lat="44.41938" lon="1.38466">
        <ele>225.7613784</ele>
        <time>2019-01-17T13:44:33Z</time>
      </trkpt>
      <trkpt lat="44.41946" lon="1.38469">
        <ele>220.7612612</ele>
        <time>2019-01-17T13:44:41Z</time>
      </trkpt>
      <trkpt lat="44.41954" lon="1.3847">
        <ele>219.061206</ele>
        <time>2019-01-17T13:44:48Z</time>
      </trkpt>
      <trkpt lat="44.41962" lon="1.38467">
        <ele>222.6613096</ele>
        <time>2019-01-17T13:45:02Z</time>
      </trkpt>
      <trkpt lat="44.4197" lon="1.38473">
        <ele>223.4610988</ele>
        <time>2019-01-17T13:45:15Z</time>
      </trkpt>
      <trkpt lat="44.41977" lon="1.3848">
        <ele>222.8608124</ele>
        <time>2019-01-17T13:45:22Z</time>
      </trkpt>
      <trkpt lat="44.41984" lon="1.38482">
        <ele>224.2607344</ele>
        <time>2019-01-17T13:45:30Z</time>
      </trkpt>
      <trkpt lat="44.41993" lon="1.38485">
        <ele>227.4605996</ele>
        <time>2019-01-17T13:45:39Z</time>
      </trkpt>
      <trkpt lat="44.42" lon="1.38489">
        <ele>229.2604616</ele>
        <time>2019-01-17T13:45:48Z</time>
      </trkpt>
      <trkpt lat="44.42007" lon="1.38488">
        <ele>225.6604756</ele>
        <time>2019-01-17T13:45:54Z</time>
      </trkpt>
      <trkpt lat="44.42015" lon="1.3849">
        <ele>222.4603856</ele>
        <time>2019-01-17T13:46:00Z</time>
      </trkpt>
      <trkpt lat="44.42022" lon="1.38492">
        <ele>223.3603284</ele>
        <time>2019-01-17T13:46:08Z</time>
      </trkpt>
      <trkpt lat="44.4203" lon="1.38492">
        <ele>206.5603304</ele>
        <time>2019-01-17T13:46:12Z</time>
      </trkpt>
      <trkpt lat="44.42037" lon="1.38493">
        <ele>200.1602732</ele>
        <time>2019-01-17T13:46:17Z</time>
      </trkpt>
      <trkpt lat="44.42045" lon="1.38498">
        <ele>205.4600852</ele>
        <time>2019-01-17T13:46:24Z</time>
      </trkpt>
      <trkpt lat="44.42053" lon="1.38497">
        <ele>208.4601184</ele>
        <time>2019-01-17T13:46:30Z</time>
      </trkpt>
      <trkpt lat="44.42062" lon="1.38496">
        <ele>213.1601444</ele>
        <time>2019-01-17T13:46:41Z</time>
      </trkpt>
      <trkpt lat="44.42069" lon="1.38504">
        <ele>213.6598288</ele>
        <time>2019-01-17T13:46:47Z</time>
      </trkpt>
      <trkpt lat="44.42075" lon="1.38511">
        <ele>213.6595668</ele>
        <time>2019-01-17T13:46:51Z</time>
      </trkpt>
      <trkpt lat="44.42082" lon="1.38513">
        <ele>215.3594668</ele>
        <time>2019-01-17T13:46:57Z</time>
      </trkpt>
      <trkpt lat="44.4209" lon="1.38511">
        <ele>214.1595468</ele>
        <time>2019-01-17T13:47:04Z</time>
      </trkpt>
      <trkpt lat="44.42098" lon="1.38509">
        <ele>212.9596556</ele>
        <time>2019-01-17T13:47:11Z</time>
      </trkpt>
      <trkpt lat="44.42104" lon="1.38507">
        <ele>216.3597148</ele>
        <time>2019-01-17T13:47:18Z</time>
      </trkpt>
      <trkpt lat="44.42113" lon="1.38506">
        <ele>208.1597724</ele>
        <time>2019-01-17T13:47:23Z</time>
      </trkpt>
      <trkpt lat="44.42121" lon="1.38501">
        <ele>200.4599456</ele>
        <time>2019-01-17T13:47:28Z</time>
      </trkpt>
      <trkpt lat="44.42129" lon="1.38496">
        <ele>197.8601448</ele>
        <time>2019-01-17T13:47:35Z</time>
      </trkpt>
      <trkpt lat="44.42137" lon="1.38493">
        <ele>196.0602724</ele>
        <time>2019-01-17T13:47:45Z</time>
      </trkpt>
      <trkpt lat="44.42144" lon="1.38489">
        <ele>197.1604312</ele>
        <time>2019-01-17T13:47:54Z</time>
      </trkpt>
      <trkpt lat="44.42151" lon="1.38495">
        <ele>196.7601968</ele>
        <time>2019-01-17T13:48:00Z</time>
      </trkpt>
      <trkpt lat="44.4216" lon="1.38494">
        <ele>197.460222</ele>
        <time>2019-01-17T13:48:10Z</time>
      </trkpt>
      <trkpt lat="44.42165" lon="1.38485">
        <ele>201.9606216</ele>
        <time>2019-01-17T13:48:21Z</time>
      </trkpt>
      <trkpt lat="44.42169" lon="1.38474">
        <ele>207.961052</ele>
        <time>2019-01-17T13:48:29Z</time>
      </trkpt>
      <trkpt lat="44.42175" lon="1.38468">
        <ele>216.96128</ele>
        <time>2019-01-17T13:48:37Z</time>
      </trkpt>
      <trkpt lat="44.42182" lon="1.38465">
        <ele>211.8613896</ele>
        <time>2019-01-17T13:48:42Z</time>
      </trkpt>
      <trkpt lat="44.42191" lon="1.38462">
        <ele>208.361514</ele>
        <time>2019-01-17T13:48:52Z</time>
      </trkpt>
      <trkpt lat="44.42199" lon="1.38464">
        <ele>201.5614464</ele>
        <time>2019-01-17T13:49:12Z</time>
      </trkpt>
      <trkpt lat="44.42207" lon="1.38463">
        <ele>187.8614988</ele>
        <time>2019-01-17T13:50:25Z</time>
      </trkpt>
      <trkpt lat="44.42207" lon="1.38451">
        <ele>188.0619776</ele>
        <time>2019-01-17T13:51:21Z</time>
      </trkpt>
      <trkpt lat="44.42209" lon="1.38442">
        <ele>186.662302</ele>
        <time>2019-01-17T13:51:30Z</time>
      </trkpt>
      <trkpt lat="44.42218" lon="1.38433">
        <ele>176.7626776</ele>
        <time>2019-01-17T13:51:35Z</time>
      </trkpt>
      <trkpt lat="44.42225" lon="1.38425">
        <ele>178.4629996</ele>
        <time>2019-01-17T13:51:41Z</time>
      </trkpt>
      <trkpt lat="44.42229" lon="1.38415">
        <ele>183.6633868</ele>
        <time>2019-01-17T13:51:47Z</time>
      </trkpt>
      <trkpt lat="44.42235" lon="1.38408">
        <ele>190.0636896</ele>
        <time>2019-01-17T13:51:56Z</time>
      </trkpt>
      <trkpt lat="44.42244" lon="1.38408">
        <ele>181.6636988</ele>
        <time>2019-01-17T13:52:07Z</time>
      </trkpt>
      <trkpt lat="44.4225" lon="1.384">
        <ele>183.9639856</ele>
        <time>2019-01-17T13:52:13Z</time>
      </trkpt>
      <trkpt lat="44.42256" lon="1.38394">
        <ele>187.0642448</ele>
        <time>2019-01-17T13:52:18Z</time>
      </trkpt>
      <trkpt lat="44.42262" lon="1.38386">
        <ele>190.1645528</ele>
        <time>2019-01-17T13:52:24Z</time>
      </trkpt>
      <trkpt lat="44.42266" lon="1.38376">
        <ele>186.7649528</ele>
        <time>2019-01-17T13:52:29Z</time>
      </trkpt>
      <trkpt lat="44.42269" lon="1.38365">
        <ele>186.1654176</ele>
        <time>2019-01-17T13:52:36Z</time>
      </trkpt>
      <trkpt lat="44.42275" lon="1.38359">
        <ele>182.0656476</ele>
        <time>2019-01-17T13:52:41Z</time>
      </trkpt>
      <trkpt lat="44.42283" lon="1.38352">
        <ele>183.165938</ele>
        <time>2019-01-17T13:52:48Z</time>
      </trkpt>
      <trkpt lat="44.42288" lon="1.38343">
        <ele>184.2662896</ele>
        <time>2019-01-17T13:52:57Z</time>
      </trkpt>
      <trkpt lat="44.4229" lon="1.38332">
        <ele>182.6667296</ele>
        <time>2019-01-17T13:53:02Z</time>
      </trkpt>
      <trkpt lat="44.42293" lon="1.38321">
        <ele>182.8671756</ele>
        <time>2019-01-17T13:53:11Z</time>
      </trkpt>
      <trkpt lat="44.42297" lon="1.38312">
        <ele>182.2675324</ele>
        <time>2019-01-17T13:53:18Z</time>
      </trkpt>
      <trkpt lat="44.42302" lon="1.38303">
        <ele>181.4678792</ele>
        <time>2019-01-17T13:53:24Z</time>
      </trkpt>
      <trkpt lat="44.42306" lon="1.38292">
        <ele>181.36834</ele>
        <time>2019-01-17T13:53:29Z</time>
      </trkpt>
      <trkpt lat="44.42312" lon="1.38287">
        <ele>183.368536</ele>
        <time>2019-01-17T13:53:37Z</time>
      </trkpt>
      <trkpt lat="44.42319" lon="1.38281">
        <ele>182.0687692</ele>
        <time>2019-01-17T13:53:42Z</time>
      </trkpt>
      <trkpt lat="44.42325" lon="1.38277">
        <ele>182.368926</ele>
        <time>2019-01-17T13:53:47Z</time>
      </trkpt>
      <trkpt lat="44.42333" lon="1.3827">
        <ele>183.3691944</ele>
        <time>2019-01-17T13:53:53Z</time>
      </trkpt>
      <trkpt lat="44.4234" lon="1.38263">
        <ele>186.2695004</ele>
        <time>2019-01-17T13:53:59Z</time>
      </trkpt>
      <trkpt lat="44.42347" lon="1.38257">
        <ele>183.3697268</ele>
        <time>2019-01-17T13:54:06Z</time>
      </trkpt>
      <trkpt lat="44.42354" lon="1.38251">
        <ele>183.6699788</ele>
        <time>2019-01-17T13:54:14Z</time>
      </trkpt>
      <trkpt lat="44.42359" lon="1.38245">
        <ele>184.870194</ele>
        <time>2019-01-17T13:54:19Z</time>
      </trkpt>
      <trkpt lat="44.42365" lon="1.38238">
        <ele>182.7704788</ele>
        <time>2019-01-17T13:54:24Z</time>
      </trkpt>
      <trkpt lat="44.42372" lon="1.3823">
        <ele>179.2707916</ele>
        <time>2019-01-17T13:54:30Z</time>
      </trkpt>
      <trkpt lat="44.42377" lon="1.38221">
        <ele>181.4711456</ele>
        <time>2019-01-17T13:54:38Z</time>
      </trkpt>
      <trkpt lat="44.42385" lon="1.38217">
        <ele>182.6713264</ele>
        <time>2019-01-17T13:54:45Z</time>
      </trkpt>
      <trkpt lat="44.42393" lon="1.38213">
        <ele>185.9714852</ele>
        <time>2019-01-17T13:54:54Z</time>
      </trkpt>
      <trkpt lat="44.424" lon="1.38208">
        <ele>182.0716856</ele>
        <time>2019-01-17T13:54:59Z</time>
      </trkpt>
      <trkpt lat="44.42408" lon="1.38202">
        <ele>176.8719384</ele>
        <time>2019-01-17T13:55:03Z</time>
      </trkpt>
      <trkpt lat="44.42414" lon="1.38197">
        <ele>173.472126</ele>
        <time>2019-01-17T13:55:06Z</time>
      </trkpt>
      <trkpt lat="44.42422" lon="1.38192">
        <ele>166.87234</ele>
        <time>2019-01-17T13:55:12Z</time>
      </trkpt>
      <trkpt lat="44.4243" lon="1.38186">
        <ele>162.0725496</ele>
        <time>2019-01-17T13:55:24Z</time>
      </trkpt>
      <trkpt lat="44.4243" lon="1.38173">
        <ele>159.9730924</ele>
        <time>2019-01-17T13:55:27Z</time>
      </trkpt>
      <trkpt lat="44.4243" lon="1.38164">
        <ele>159.3734492</ele>
        <time>2019-01-17T13:55:31Z</time>
      </trkpt>
      <trkpt lat="44.42431" lon="1.38153">
        <ele>159.0738644</ele>
        <time>2019-01-17T13:55:35Z</time>
      </trkpt>
      <trkpt lat="44.42437" lon="1.38144">
        <ele>162.574228</ele>
        <time>2019-01-17T13:55:40Z</time>
      </trkpt>
      <trkpt lat="44.42446" lon="1.38145">
        <ele>167.9742176</ele>
        <time>2019-01-17T13:55:50Z</time>
      </trkpt>
      <trkpt lat="44.42453" lon="1.38139">
        <ele>169.9744436</ele>
        <time>2019-01-17T13:55:59Z</time>
      </trkpt>
      <trkpt lat="44.42459" lon="1.38135">
        <ele>176.2746004</ele>
        <time>2019-01-17T13:56:06Z</time>
      </trkpt>
      <trkpt lat="44.42466" lon="1.3813">
        <ele>185.2748168</ele>
        <time>2019-01-17T13:56:17Z</time>
      </trkpt>
      <trkpt lat="44.42473" lon="1.38124">
        <ele>192.7750544</ele>
        <time>2019-01-17T13:56:24Z</time>
      </trkpt>
      <trkpt lat="44.42482" lon="1.38124">
        <ele>203.9750576</ele>
        <time>2019-01-17T13:56:32Z</time>
      </trkpt>
      <trkpt lat="44.42491" lon="1.38124">
        <ele>199.9750596</ele>
        <time>2019-01-17T13:56:38Z</time>
      </trkpt>
      <trkpt lat="44.42499" lon="1.38119">
        <ele>192.27524</ele>
        <time>2019-01-17T13:57:36Z</time>
      </trkpt>
      <trkpt lat="44.42507" lon="1.38123">
        <ele>175.1750756</ele>
        <time>2019-01-17T13:57:43Z</time>
      </trkpt>
      <trkpt lat="44.42512" lon="1.38113">
        <ele>180.4754796</ele>
        <time>2019-01-17T13:58:19Z</time>
      </trkpt>
      <trkpt lat="44.42519" lon="1.38117">
        <ele>182.8753064</ele>
        <time>2019-01-17T13:58:29Z</time>
      </trkpt>
      <trkpt lat="44.42523" lon="1.38126">
        <ele>182.4749752</ele>
        <time>2019-01-17T13:58:35Z</time>
      </trkpt>
      <trkpt lat="44.42531" lon="1.38128">
        <ele>184.1748788</ele>
        <time>2019-01-17T13:58:43Z</time>
      </trkpt>
      <trkpt lat="44.42539" lon="1.38126">
        <ele>181.2749676</ele>
        <time>2019-01-17T13:58:48Z</time>
      </trkpt>
      <trkpt lat="44.42547" lon="1.38123">
        <ele>177.1750912</ele>
        <time>2019-01-17T13:58:55Z</time>
      </trkpt>
      <trkpt lat="44.42554" lon="1.38125">
        <ele>171.7750168</ele>
        <time>2019-01-17T13:59:00Z</time>
      </trkpt>
      <trkpt lat="44.42562" lon="1.38128">
        <ele>171.5749016</ele>
        <time>2019-01-17T13:59:05Z</time>
      </trkpt>
      <trkpt lat="44.42571" lon="1.3813">
        <ele>170.174782</ele>
        <time>2019-01-17T13:59:14Z</time>
      </trkpt>
      <trkpt lat="44.42579" lon="1.38135">
        <ele>182.1746032</ele>
        <time>2019-01-17T13:59:27Z</time>
      </trkpt>
      <trkpt lat="44.42587" lon="1.38136">
        <ele>192.274548</ele>
        <time>2019-01-17T13:59:39Z</time>
      </trkpt>
      <trkpt lat="44.42594" lon="1.38142">
        <ele>191.5743244</ele>
        <time>2019-01-17T13:59:46Z</time>
      </trkpt>
      <trkpt lat="44.42603" lon="1.38144">
        <ele>190.8742516</ele>
        <time>2019-01-17T13:59:52Z</time>
      </trkpt>
      <trkpt lat="44.4261" lon="1.38145">
        <ele>190.7741852</ele>
        <time>2019-01-17T13:59:59Z</time>
      </trkpt>
      <trkpt lat="44.42617" lon="1.38142">
        <ele>188.1743216</ele>
        <time>2019-01-17T14:00:06Z</time>
      </trkpt>
      <trkpt lat="44.42623" lon="1.38142">
        <ele>187.9743064</ele>
        <time>2019-01-17T14:00:11Z</time>
      </trkpt>
      <trkpt lat="44.42632" lon="1.38139">
        <ele>183.2744436</ele>
        <time>2019-01-17T14:00:16Z</time>
      </trkpt>
      <trkpt lat="44.42643" lon="1.38133">
        <ele>175.8746836</ele>
        <time>2019-01-17T14:00:21Z</time>
      </trkpt>
      <trkpt lat="44.42652" lon="1.38128">
        <ele>168.9748836</ele>
        <time>2019-01-17T14:00:26Z</time>
      </trkpt>
      <trkpt lat="44.4266" lon="1.38127">
        <ele>169.1749268</ele>
        <time>2019-01-17T14:00:33Z</time>
      </trkpt>
      <trkpt lat="44.42669" lon="1.38122">
        <ele>170.4751048</ele>
        <time>2019-01-17T14:00:41Z</time>
      </trkpt>
      <trkpt lat="44.42675" lon="1.38116">
        <ele>171.5753576</ele>
        <time>2019-01-17T14:00:50Z</time>
      </trkpt>
      <trkpt lat="44.42679" lon="1.38111">
        <ele>171.7755456</ele>
        <time>2019-01-17T14:00:55Z</time>
      </trkpt>
      <trkpt lat="44.42686" lon="1.38111">
        <ele>165.3755628</ele>
        <time>2019-01-17T14:01:02Z</time>
      </trkpt>
      <trkpt lat="44.42693" lon="1.38103">
        <ele>161.4758712</ele>
        <time>2019-01-17T14:01:15Z</time>
      </trkpt>
      <trkpt lat="44.42697" lon="1.38091">
        <ele>160.8763728</ele>
        <time>2019-01-17T14:01:20Z</time>
      </trkpt>
      <trkpt lat="44.42701" lon="1.38081">
        <ele>163.17678</ele>
        <time>2019-01-17T14:01:28Z</time>
      </trkpt>
      <trkpt lat="44.42704" lon="1.38069">
        <ele>163.477224</ele>
        <time>2019-01-17T14:01:36Z</time>
      </trkpt>
      <trkpt lat="44.42708" lon="1.3806">
        <ele>152.4775836</ele>
        <time>2019-01-17T14:01:40Z</time>
      </trkpt>
      <trkpt lat="44.42712" lon="1.38055">
        <ele>153.777816</ele>
        <time>2019-01-17T14:01:46Z</time>
      </trkpt>
      <trkpt lat="44.42721" lon="1.3805">
        <ele>155.9780184</ele>
        <time>2019-01-17T14:01:51Z</time>
      </trkpt>
      <trkpt lat="44.42728" lon="1.38046">
        <ele>156.8781492</ele>
        <time>2019-01-17T14:01:55Z</time>
      </trkpt>
      <trkpt lat="44.42734" lon="1.38038">
        <ele>165.5784732</ele>
        <time>2019-01-17T14:02:03Z</time>
      </trkpt>
      <trkpt lat="44.42741" lon="1.38031">
        <ele>171.5787456</ele>
        <time>2019-01-17T14:02:19Z</time>
      </trkpt>
      <trkpt lat="44.42743" lon="1.38022">
        <ele>168.8791044</ele>
        <time>2019-01-17T14:02:23Z</time>
      </trkpt>
      <trkpt lat="44.42748" lon="1.38016">
        <ele>163.0793808</ele>
        <time>2019-01-17T14:02:26Z</time>
      </trkpt>
      <trkpt lat="44.42754" lon="1.3801">
        <ele>161.3796024</ele>
        <time>2019-01-17T14:02:32Z</time>
      </trkpt>
      <trkpt lat="44.42758" lon="1.38005">
        <ele>161.3797944</ele>
        <time>2019-01-17T14:02:36Z</time>
      </trkpt>
      <trkpt lat="44.42765" lon="1.37997">
        <ele>160.5801336</ele>
        <time>2019-01-17T14:02:41Z</time>
      </trkpt>
      <trkpt lat="44.4277" lon="1.37987">
        <ele>163.2805212</ele>
        <time>2019-01-17T14:02:49Z</time>
      </trkpt>
      <trkpt lat="44.42776" lon="1.37979">
        <ele>158.5808412</ele>
        <time>2019-01-17T14:02:54Z</time>
      </trkpt>
      <trkpt lat="44.42779" lon="1.37968">
        <ele>163.3812956</ele>
        <time>2019-01-17T14:03:05Z</time>
      </trkpt>
      <trkpt lat="44.42782" lon="1.3796">
        <ele>162.6816204</ele>
        <time>2019-01-17T14:03:11Z</time>
      </trkpt>
      <trkpt lat="44.42786" lon="1.3795">
        <ele>157.0819832</ele>
        <time>2019-01-17T14:03:15Z</time>
      </trkpt>
      <trkpt lat="44.4279" lon="1.37944">
        <ele>153.1822612</ele>
        <time>2019-01-17T14:03:18Z</time>
      </trkpt>
      <trkpt lat="44.42795" lon="1.37936">
        <ele>153.9825764</ele>
        <time>2019-01-17T14:03:24Z</time>
      </trkpt>
      <trkpt lat="44.42799" lon="1.37928">
        <ele>153.2828984</ele>
        <time>2019-01-17T14:03:31Z</time>
      </trkpt>
      <trkpt lat="44.42803" lon="1.3792">
        <ele>150.3832124</ele>
        <time>2019-01-17T14:03:35Z</time>
      </trkpt>
      <trkpt lat="44.4281" lon="1.37911">
        <ele>149.683544</ele>
        <time>2019-01-17T14:03:40Z</time>
      </trkpt>
      <trkpt lat="44.42816" lon="1.37906">
        <ele>148.2837568</ele>
        <time>2019-01-17T14:03:43Z</time>
      </trkpt>
      <trkpt lat="44.42822" lon="1.37898">
        <ele>159.8840884</ele>
        <time>2019-01-17T14:03:52Z</time>
      </trkpt>
      <trkpt lat="44.42829" lon="1.37891">
        <ele>157.4843508</ele>
        <time>2019-01-17T14:03:58Z</time>
      </trkpt>
      <trkpt lat="44.42836" lon="1.37887">
        <ele>156.6845364</ele>
        <time>2019-01-17T14:04:03Z</time>
      </trkpt>
      <trkpt lat="44.42843" lon="1.37879">
        <ele>156.2848316</ele>
        <time>2019-01-17T14:04:12Z</time>
      </trkpt>
      <trkpt lat="44.42849" lon="1.3787">
        <ele>155.6851824</ele>
        <time>2019-01-17T14:04:20Z</time>
      </trkpt>
      <trkpt lat="44.42853" lon="1.37861">
        <ele>160.585556</ele>
        <time>2019-01-17T14:04:27Z</time>
      </trkpt>
      <trkpt lat="44.42858" lon="1.37852">
        <ele>154.88591</ele>
        <time>2019-01-17T14:04:34Z</time>
      </trkpt>
      <trkpt lat="44.42862" lon="1.37844">
        <ele>155.6862248</ele>
        <time>2019-01-17T14:04:41Z</time>
      </trkpt>
      <trkpt lat="44.42867" lon="1.37839">
        <ele>153.4864444</ele>
        <time>2019-01-17T14:04:45Z</time>
      </trkpt>
      <trkpt lat="44.42874" lon="1.37832">
        <ele>153.1867196</ele>
        <time>2019-01-17T14:04:50Z</time>
      </trkpt>
      <trkpt lat="44.42883" lon="1.37828">
        <ele>152.7868848</ele>
        <time>2019-01-17T14:04:59Z</time>
      </trkpt>
      <trkpt lat="44.4289" lon="1.37822">
        <ele>156.5871144</ele>
        <time>2019-01-17T14:05:06Z</time>
      </trkpt>
      <trkpt lat="44.42895" lon="1.37815">
        <ele>160.087396</ele>
        <time>2019-01-17T14:05:12Z</time>
      </trkpt>
      <trkpt lat="44.42902" lon="1.37808">
        <ele>158.38769</ele>
        <time>2019-01-17T14:05:18Z</time>
      </trkpt>
      <trkpt lat="44.42907" lon="1.37801">
        <ele>152.2879424</ele>
        <time>2019-01-17T14:05:21Z</time>
      </trkpt>
      <trkpt lat="44.42912" lon="1.37791">
        <ele>154.2883696</ele>
        <time>2019-01-17T14:05:28Z</time>
      </trkpt>
      <trkpt lat="44.42914" lon="1.37779">
        <ele>152.9888228</ele>
        <time>2019-01-17T14:05:36Z</time>
      </trkpt>
      <trkpt lat="44.42917" lon="1.37769">
        <ele>154.2892296</ele>
        <time>2019-01-17T14:05:45Z</time>
      </trkpt>
      <trkpt lat="44.42921" lon="1.37759">
        <ele>153.9896532</ele>
        <time>2019-01-17T14:06:17Z</time>
      </trkpt>
      <trkpt lat="44.42929" lon="1.37754">
        <ele>153.4898268</ele>
        <time>2019-01-17T14:07:21Z</time>
      </trkpt>
      <trkpt lat="44.42935" lon="1.37745">
        <ele>150.090188</ele>
        <time>2019-01-17T14:08:52Z</time>
      </trkpt>
      <trkpt lat="44.42942" lon="1.37742">
        <ele>151.9903352</ele>
        <time>2019-01-17T14:09:08Z</time>
      </trkpt>
      <trkpt lat="44.4295" lon="1.37736">
        <ele>143.4905608</ele>
        <time>2019-01-17T14:09:13Z</time>
      </trkpt>
      <trkpt lat="44.42956" lon="1.37729">
        <ele>143.8908384</ele>
        <time>2019-01-17T14:09:20Z</time>
      </trkpt>
      <trkpt lat="44.42962" lon="1.37722">
        <ele>143.5911388</ele>
        <time>2019-01-17T14:09:26Z</time>
      </trkpt>
      <trkpt lat="44.42968" lon="1.37713">
        <ele>143.4915016</ele>
        <time>2019-01-17T14:09:34Z</time>
      </trkpt>
      <trkpt lat="44.42972" lon="1.37705">
        <ele>143.7918176</ele>
        <time>2019-01-17T14:09:40Z</time>
      </trkpt>
      <trkpt lat="44.42979" lon="1.37697">
        <ele>144.692136</ele>
        <time>2019-01-17T14:09:47Z</time>
      </trkpt>
      <trkpt lat="44.42986" lon="1.37692">
        <ele>145.1923332</ele>
        <time>2019-01-17T14:09:53Z</time>
      </trkpt>
      <trkpt lat="44.42992" lon="1.37686">
        <ele>145.5925704</ele>
        <time>2019-01-17T14:09:59Z</time>
      </trkpt>
      <trkpt lat="44.42997" lon="1.37681">
        <ele>145.892764</ele>
        <time>2019-01-17T14:10:03Z</time>
      </trkpt>
      <trkpt lat="44.43003" lon="1.37674">
        <ele>142.3930224</ele>
        <time>2019-01-17T14:10:08Z</time>
      </trkpt>
      <trkpt lat="44.4301" lon="1.37667">
        <ele>140.7933084</ele>
        <time>2019-01-17T14:10:15Z</time>
      </trkpt>
      <trkpt lat="44.43017" lon="1.3766">
        <ele>143.4935948</ele>
        <time>2019-01-17T14:10:24Z</time>
      </trkpt>
      <trkpt lat="44.43024" lon="1.37654">
        <ele>145.5938312</ele>
        <time>2019-01-17T14:10:32Z</time>
      </trkpt>
      <trkpt lat="44.43032" lon="1.37654">
        <ele>145.3938436</ele>
        <time>2019-01-17T14:10:42Z</time>
      </trkpt>
      <trkpt lat="44.4304" lon="1.37648">
        <ele>147.9940792</ele>
        <time>2019-01-17T14:10:50Z</time>
      </trkpt>
      <trkpt lat="44.43047" lon="1.37643">
        <ele>149.6942792</ele>
        <time>2019-01-17T14:10:57Z</time>
      </trkpt>
      <trkpt lat="44.43055" lon="1.37638">
        <ele>148.0944864</ele>
        <time>2019-01-17T14:11:02Z</time>
      </trkpt>
      <trkpt lat="44.43062" lon="1.37632">
        <ele>148.9947156</ele>
        <time>2019-01-17T14:11:08Z</time>
      </trkpt>
      <trkpt lat="44.4307" lon="1.37627">
        <ele>150.0949064</ele>
        <time>2019-01-17T14:11:15Z</time>
      </trkpt>
      <trkpt lat="44.43078" lon="1.37622">
        <ele>149.6951056</ele>
        <time>2019-01-17T14:11:22Z</time>
      </trkpt>
      <trkpt lat="44.43085" lon="1.37617">
        <ele>151.9953024</ele>
        <time>2019-01-17T14:11:30Z</time>
      </trkpt>
      <trkpt lat="44.43093" lon="1.37613">
        <ele>153.8954996</ele>
        <time>2019-01-17T14:11:38Z</time>
      </trkpt>
      <trkpt lat="44.431" lon="1.37611">
        <ele>150.1955804</ele>
        <time>2019-01-17T14:11:43Z</time>
      </trkpt>
      <trkpt lat="44.43109" lon="1.37609">
        <ele>148.8956572</ele>
        <time>2019-01-17T14:11:50Z</time>
      </trkpt>
      <trkpt lat="44.43117" lon="1.3761">
        <ele>147.2956112</ele>
        <time>2019-01-17T14:11:59Z</time>
      </trkpt>
      <trkpt lat="44.43126" lon="1.3761">
        <ele>147.2956104</ele>
        <time>2019-01-17T14:12:08Z</time>
      </trkpt>
      <trkpt lat="44.43131" lon="1.37604">
        <ele>144.4958464</ele>
        <time>2019-01-17T14:12:18Z</time>
      </trkpt>
      <trkpt lat="44.43137" lon="1.37595">
        <ele>140.6962104</ele>
        <time>2019-01-17T14:12:24Z</time>
      </trkpt>
      <trkpt lat="44.43143" lon="1.37586">
        <ele>138.7965816</ele>
        <time>2019-01-17T14:12:30Z</time>
      </trkpt>
      <trkpt lat="44.43149" lon="1.37578">
        <ele>140.29688</ele>
        <time>2019-01-17T14:12:37Z</time>
      </trkpt>
      <trkpt lat="44.43155" lon="1.37572">
        <ele>140.897134</ele>
        <time>2019-01-17T14:12:43Z</time>
      </trkpt>
      <trkpt lat="44.43158" lon="1.3756">
        <ele>140.5976076</ele>
        <time>2019-01-17T14:12:54Z</time>
      </trkpt>
      <trkpt lat="44.43162" lon="1.37548">
        <ele>138.6980716</ele>
        <time>2019-01-17T14:13:03Z</time>
      </trkpt>
      <trkpt lat="44.43169" lon="1.37541">
        <ele>140.498356</ele>
        <time>2019-01-17T14:13:10Z</time>
      </trkpt>
      <trkpt lat="44.43177" lon="1.37536">
        <ele>142.2985608</ele>
        <time>2019-01-17T14:13:16Z</time>
      </trkpt>
      <trkpt lat="44.43184" lon="1.3753">
        <ele>140.99882</ele>
        <time>2019-01-17T14:13:23Z</time>
      </trkpt>
      <trkpt lat="44.4319" lon="1.37523">
        <ele>141.799092</ele>
        <time>2019-01-17T14:13:30Z</time>
      </trkpt>
      <trkpt lat="44.43195" lon="1.37514">
        <ele>141.9994548</ele>
        <time>2019-01-17T14:13:39Z</time>
      </trkpt>
      <trkpt lat="44.43202" lon="1.37506">
        <ele>142.9997516</ele>
        <time>2019-01-17T14:13:48Z</time>
      </trkpt>
      <trkpt lat="44.43208" lon="1.37501">
        <ele>142.4999576</ele>
        <time>2019-01-17T14:13:52Z</time>
      </trkpt>
      <trkpt lat="44.43219" lon="1.37494">
        <ele>138.7002532</ele>
        <time>2019-01-17T14:13:56Z</time>
      </trkpt>
      <trkpt lat="44.43227" lon="1.3749">
        <ele>134.3004196</ele>
        <time>2019-01-17T14:14:02Z</time>
      </trkpt>
      <trkpt lat="44.43235" lon="1.37485">
        <ele>135.400598</ele>
        <time>2019-01-17T14:14:10Z</time>
      </trkpt>
      <trkpt lat="44.43242" lon="1.37482">
        <ele>134.6007264</ele>
        <time>2019-01-17T14:14:15Z</time>
      </trkpt>
      <trkpt lat="44.43251" lon="1.37479">
        <ele>133.7008244</ele>
        <time>2019-01-17T14:14:21Z</time>
      </trkpt>
      <trkpt lat="44.43257" lon="1.37476">
        <ele>134.1009688</ele>
        <time>2019-01-17T14:14:26Z</time>
      </trkpt>
      <trkpt lat="44.43265" lon="1.37472">
        <ele>138.9011276</ele>
        <time>2019-01-17T14:14:35Z</time>
      </trkpt>
      <trkpt lat="44.43272" lon="1.37469">
        <ele>142.2012428</ele>
        <time>2019-01-17T14:14:41Z</time>
      </trkpt>
      <trkpt lat="44.43279" lon="1.37461">
        <ele>138.90158</ele>
        <time>2019-01-17T14:14:50Z</time>
      </trkpt>
      <trkpt lat="44.43286" lon="1.37456">
        <ele>141.9017492</ele>
        <time>2019-01-17T14:14:56Z</time>
      </trkpt>
      <trkpt lat="44.43294" lon="1.37455">
        <ele>146.201788</ele>
        <time>2019-01-17T14:15:01Z</time>
      </trkpt>
      <trkpt lat="44.43303" lon="1.37451">
        <ele>141.9019624</ele>
        <time>2019-01-17T14:15:05Z</time>
      </trkpt>
      <trkpt lat="44.43311" lon="1.37446">
        <ele>142.3021628</ele>
        <time>2019-01-17T14:15:11Z</time>
      </trkpt>
      <trkpt lat="44.43315" lon="1.37439">
        <ele>141.8024404</ele>
        <time>2019-01-17T14:15:18Z</time>
      </trkpt>
      <trkpt lat="44.43322" lon="1.37433">
        <ele>139.7026888</ele>
        <time>2019-01-17T14:15:25Z</time>
      </trkpt>
      <trkpt lat="44.43328" lon="1.37429">
        <ele>139.0028516</ele>
        <time>2019-01-17T14:15:32Z</time>
      </trkpt>
      <trkpt lat="44.43336" lon="1.37427">
        <ele>137.7029396</ele>
        <time>2019-01-17T14:15:39Z</time>
      </trkpt>
      <trkpt lat="44.43343" lon="1.37422">
        <ele>139.4031184</ele>
        <time>2019-01-17T14:15:45Z</time>
      </trkpt>
      <trkpt lat="44.43349" lon="1.37415">
        <ele>137.2034048</ele>
        <time>2019-01-17T14:15:54Z</time>
      </trkpt>
      <trkpt lat="44.43354" lon="1.37409">
        <ele>132.0036444</ele>
        <time>2019-01-17T14:16:04Z</time>
      </trkpt>
      <trkpt lat="44.43364" lon="1.37404">
        <ele>126.3038248</ele>
        <time>2019-01-17T14:16:09Z</time>
      </trkpt>
      <trkpt lat="44.43372" lon="1.37401">
        <ele>125.9039476</ele>
        <time>2019-01-17T14:16:14Z</time>
      </trkpt>
      <trkpt lat="44.43381" lon="1.37397">
        <ele>132.4041152</ele>
        <time>2019-01-17T14:16:20Z</time>
      </trkpt>
      <trkpt lat="44.43389" lon="1.37394">
        <ele>129.9042332</ele>
        <time>2019-01-17T14:16:24Z</time>
      </trkpt>
      <trkpt lat="44.43396" lon="1.37391">
        <ele>128.1043592</ele>
        <time>2019-01-17T14:16:30Z</time>
      </trkpt>
      <trkpt lat="44.43404" lon="1.37389">
        <ele>124.3044348</ele>
        <time>2019-01-17T14:16:38Z</time>
      </trkpt>
      <trkpt lat="44.43411" lon="1.37384">
        <ele>128.6046528</ele>
        <time>2019-01-17T14:16:47Z</time>
      </trkpt>
      <trkpt lat="44.43417" lon="1.37379">
        <ele>126.304846</ele>
        <time>2019-01-17T14:16:52Z</time>
      </trkpt>
      <trkpt lat="44.43424" lon="1.37372">
        <ele>127.9051388</ele>
        <time>2019-01-17T14:16:58Z</time>
      </trkpt>
      <trkpt lat="44.43432" lon="1.37367">
        <ele>131.5053328</ele>
        <time>2019-01-17T14:17:06Z</time>
      </trkpt>
      <trkpt lat="44.43438" lon="1.37361">
        <ele>134.6055612</ele>
        <time>2019-01-17T14:17:12Z</time>
      </trkpt>
      <trkpt lat="44.43444" lon="1.37356">
        <ele>137.2057708</ele>
        <time>2019-01-17T14:17:18Z</time>
      </trkpt>
      <trkpt lat="44.43453" lon="1.37354">
        <ele>135.8058364</ele>
        <time>2019-01-17T14:17:24Z</time>
      </trkpt>
      <trkpt lat="44.4346" lon="1.37352">
        <ele>131.9059176</ele>
        <time>2019-01-17T14:17:30Z</time>
      </trkpt>
      <trkpt lat="44.43468" lon="1.37345">
        <ele>135.0062068</ele>
        <time>2019-01-17T14:17:41Z</time>
      </trkpt>
      <trkpt lat="44.43475" lon="1.37348">
        <ele>131.9060688</ele>
        <time>2019-01-17T14:19:11Z</time>
      </trkpt>
      <trkpt lat="44.43483" lon="1.37348">
        <ele>130.2060964</ele>
        <time>2019-01-17T14:19:21Z</time>
      </trkpt>
      <trkpt lat="44.43492" lon="1.37347">
        <ele>132.7061288</ele>
        <time>2019-01-17T14:19:27Z</time>
      </trkpt>
      <trkpt lat="44.435" lon="1.37345">
        <ele>133.9061968</ele>
        <time>2019-01-17T14:19:32Z</time>
      </trkpt>
      <trkpt lat="44.43508" lon="1.37344">
        <ele>135.6062372</ele>
        <time>2019-01-17T14:19:38Z</time>
      </trkpt>
      <trkpt lat="44.43515" lon="1.37337">
        <ele>140.3065156</ele>
        <time>2019-01-17T14:19:48Z</time>
      </trkpt>
      <trkpt lat="44.43522" lon="1.3733">
        <ele>144.706818</ele>
        <time>2019-01-17T14:19:59Z</time>
      </trkpt>
      <trkpt lat="44.4353" lon="1.37325">
        <ele>142.9069952</ele>
        <time>2019-01-17T14:20:05Z</time>
      </trkpt>
      <trkpt lat="44.43537" lon="1.3732">
        <ele>142.8071888</ele>
        <time>2019-01-17T14:20:12Z</time>
      </trkpt>
      <trkpt lat="44.43543" lon="1.37315">
        <ele>140.2074204</ele>
        <time>2019-01-17T14:20:18Z</time>
      </trkpt>
      <trkpt lat="44.4355" lon="1.37309">
        <ele>136.30764</ele>
        <time>2019-01-17T14:20:23Z</time>
      </trkpt>
      <trkpt lat="44.43557" lon="1.37302">
        <ele>129.8079252</ele>
        <time>2019-01-17T14:20:27Z</time>
      </trkpt>
      <trkpt lat="44.43563" lon="1.37294">
        <ele>127.4082464</ele>
        <time>2019-01-17T14:20:32Z</time>
      </trkpt>
      <trkpt lat="44.43568" lon="1.37288">
        <ele>129.3085004</ele>
        <time>2019-01-17T14:20:38Z</time>
      </trkpt>
      <trkpt lat="44.43574" lon="1.3728">
        <ele>125.7088036</ele>
        <time>2019-01-17T14:20:43Z</time>
      </trkpt>
      <trkpt lat="44.43579" lon="1.37271">
        <ele>125.5091696</ele>
        <time>2019-01-17T14:20:51Z</time>
      </trkpt>
      <trkpt lat="44.43583" lon="1.3726">
        <ele>128.209596</ele>
        <time>2019-01-17T14:20:59Z</time>
      </trkpt>
      <trkpt lat="44.43589" lon="1.37251">
        <ele>136.1099492</ele>
        <time>2019-01-17T14:21:07Z</time>
      </trkpt>
      <trkpt lat="44.43592" lon="1.3724">
        <ele>138.2104124</ele>
        <time>2019-01-17T14:21:15Z</time>
      </trkpt>
      <trkpt lat="44.43593" lon="1.37229">
        <ele>135.5108344</ele>
        <time>2019-01-17T14:21:20Z</time>
      </trkpt>
      <trkpt lat="44.43595" lon="1.37219">
        <ele>134.9112404</ele>
        <time>2019-01-17T14:21:24Z</time>
      </trkpt>
      <trkpt lat="44.43595" lon="1.37207">
        <ele>134.71174</ele>
        <time>2019-01-17T14:21:30Z</time>
      </trkpt>
      <trkpt lat="44.43594" lon="1.37197">
        <ele>136.1121252</ele>
        <time>2019-01-17T14:21:36Z</time>
      </trkpt>
      <trkpt lat="44.43595" lon="1.37187">
        <ele>130.0125304</ele>
        <time>2019-01-17T14:21:40Z</time>
      </trkpt>
      <trkpt lat="44.43598" lon="1.37177">
        <ele>126.712916</ele>
        <time>2019-01-17T14:21:45Z</time>
      </trkpt>
      <trkpt lat="44.43603" lon="1.37167">
        <ele>122.8133232</ele>
        <time>2019-01-17T14:21:51Z</time>
      </trkpt>
      <trkpt lat="44.43605" lon="1.37156">
        <ele>123.3137796</ele>
        <time>2019-01-17T14:22:00Z</time>
      </trkpt>
      <trkpt lat="44.4361" lon="1.37147">
        <ele>125.214116</ele>
        <time>2019-01-17T14:22:05Z</time>
      </trkpt>
      <trkpt lat="44.43614" lon="1.37137">
        <ele>126.414534</ele>
        <time>2019-01-17T14:22:12Z</time>
      </trkpt>
      <trkpt lat="44.43616" lon="1.37128">
        <ele>126.3148752</ele>
        <time>2019-01-17T14:22:18Z</time>
      </trkpt>
      <trkpt lat="44.4362" lon="1.37118">
        <ele>129.015276</ele>
        <time>2019-01-17T14:22:24Z</time>
      </trkpt>
      <trkpt lat="44.43622" lon="1.37109">
        <ele>132.4156248</ele>
        <time>2019-01-17T14:22:30Z</time>
      </trkpt>
      <trkpt lat="44.43623" lon="1.37098">
        <ele>128.7160716</ele>
        <time>2019-01-17T14:22:36Z</time>
      </trkpt>
      <trkpt lat="44.43626" lon="1.37086">
        <ele>126.3165472</ele>
        <time>2019-01-17T14:22:42Z</time>
      </trkpt>
      <trkpt lat="44.43628" lon="1.37078">
        <ele>125.1168928</ele>
        <time>2019-01-17T14:22:48Z</time>
      </trkpt>
      <trkpt lat="44.4363" lon="1.37067">
        <ele>122.6173076</ele>
        <time>2019-01-17T14:22:54Z</time>
      </trkpt>
      <trkpt lat="44.4363" lon="1.37055">
        <ele>119.3177832</ele>
        <time>2019-01-17T14:23:01Z</time>
      </trkpt>
      <trkpt lat="44.43631" lon="1.37043">
        <ele>120.4182688</ele>
        <time>2019-01-17T14:23:08Z</time>
      </trkpt>
      <trkpt lat="44.43634" lon="1.37031">
        <ele>121.4187492</ele>
        <time>2019-01-17T14:23:15Z</time>
      </trkpt>
      <trkpt lat="44.43638" lon="1.37022">
        <ele>121.0191316</ele>
        <time>2019-01-17T14:23:21Z</time>
      </trkpt>
      <trkpt lat="44.43645" lon="1.37011">
        <ele>116.7195424</ele>
        <time>2019-01-17T14:23:26Z</time>
      </trkpt>
      <trkpt lat="44.43646" lon="1.37002">
        <ele>119.1199044</ele>
        <time>2019-01-17T14:23:31Z</time>
      </trkpt>
      <trkpt lat="44.43647" lon="1.36994">
        <ele>120.5202492</ele>
        <time>2019-01-17T14:23:36Z</time>
      </trkpt>
      <trkpt lat="44.43647" lon="1.36982">
        <ele>118.4207036</ele>
        <time>2019-01-17T14:23:41Z</time>
      </trkpt>
      <trkpt lat="44.43648" lon="1.36972">
        <ele>119.7211168</ele>
        <time>2019-01-17T14:23:48Z</time>
      </trkpt>
      <trkpt lat="44.43645" lon="1.36962">
        <ele>123.1215132</ele>
        <time>2019-01-17T14:23:57Z</time>
      </trkpt>
      <trkpt lat="44.4364" lon="1.36956">
        <ele>128.021762</ele>
        <time>2019-01-17T14:24:03Z</time>
      </trkpt>
      <trkpt lat="44.43635" lon="1.36946">
        <ele>123.7221512</ele>
        <time>2019-01-17T14:24:09Z</time>
      </trkpt>
      <trkpt lat="44.43633" lon="1.36934">
        <ele>117.8226252</ele>
        <time>2019-01-17T14:24:16Z</time>
      </trkpt>
      <trkpt lat="44.43631" lon="1.36923">
        <ele>121.0230932</ele>
        <time>2019-01-17T14:24:24Z</time>
      </trkpt>
      <trkpt lat="44.43632" lon="1.36912">
        <ele>126.42354</ele>
        <time>2019-01-17T14:24:35Z</time>
      </trkpt>
      <trkpt lat="44.43633" lon="1.369">
        <ele>126.7240012</ele>
        <time>2019-01-17T14:24:41Z</time>
      </trkpt>
      <trkpt lat="44.43631" lon="1.3689">
        <ele>127.3244216</ele>
        <time>2019-01-17T14:24:48Z</time>
      </trkpt>
      <trkpt lat="44.43631" lon="1.36881">
        <ele>127.724758</ele>
        <time>2019-01-17T14:24:54Z</time>
      </trkpt>
      <trkpt lat="44.43627" lon="1.3687">
        <ele>129.9252124</ele>
        <time>2019-01-17T14:25:00Z</time>
      </trkpt>
      <trkpt lat="44.43625" lon="1.3686">
        <ele>129.3255984</ele>
        <time>2019-01-17T14:25:06Z</time>
      </trkpt>
      <trkpt lat="44.43622" lon="1.36848">
        <ele>128.626078</ele>
        <time>2019-01-17T14:25:12Z</time>
      </trkpt>
      <trkpt lat="44.43619" lon="1.36836">
        <ele>128.6265504</ele>
        <time>2019-01-17T14:25:18Z</time>
      </trkpt>
      <trkpt lat="44.43617" lon="1.36826">
        <ele>129.4269712</ele>
        <time>2019-01-17T14:25:24Z</time>
      </trkpt>
      <trkpt lat="44.43613" lon="1.36815">
        <ele>131.7273952</ele>
        <time>2019-01-17T14:25:32Z</time>
      </trkpt>
      <trkpt lat="44.4361" lon="1.36804">
        <ele>131.9278588</ele>
        <time>2019-01-17T14:25:39Z</time>
      </trkpt>
      <trkpt lat="44.43607" lon="1.36793">
        <ele>131.8282968</ele>
        <time>2019-01-17T14:25:44Z</time>
      </trkpt>
      <trkpt lat="44.43603" lon="1.36782">
        <ele>129.528712</ele>
        <time>2019-01-17T14:25:48Z</time>
      </trkpt>
      <trkpt lat="44.43605" lon="1.36774">
        <ele>129.4290564</ele>
        <time>2019-01-17T14:25:52Z</time>
      </trkpt>
      <trkpt lat="44.43609" lon="1.36763">
        <ele>129.52949</ele>
        <time>2019-01-17T14:25:58Z</time>
      </trkpt>
      <trkpt lat="44.43611" lon="1.36753">
        <ele>128.8298952</ele>
        <time>2019-01-17T14:26:04Z</time>
      </trkpt>
      <trkpt lat="44.43611" lon="1.36742">
        <ele>128.2303208</ele>
        <time>2019-01-17T14:26:09Z</time>
      </trkpt>
      <trkpt lat="44.43613" lon="1.36733">
        <ele>128.2307</ele>
        <time>2019-01-17T14:26:14Z</time>
      </trkpt>
      <trkpt lat="44.43617" lon="1.36722">
        <ele>126.1311288</ele>
        <time>2019-01-17T14:26:22Z</time>
      </trkpt>
      <trkpt lat="44.43622" lon="1.36713">
        <ele>121.7314632</ele>
        <time>2019-01-17T14:26:27Z</time>
      </trkpt>
      <trkpt lat="44.43625" lon="1.36702">
        <ele>122.5319236</ele>
        <time>2019-01-17T14:26:34Z</time>
      </trkpt>
      <trkpt lat="44.43626" lon="1.36693">
        <ele>122.8322732</ele>
        <time>2019-01-17T14:26:39Z</time>
      </trkpt>
      <trkpt lat="44.43627" lon="1.36683">
        <ele>123.2326764</ele>
        <time>2019-01-17T14:26:45Z</time>
      </trkpt>
      <trkpt lat="44.43631" lon="1.36673">
        <ele>126.7330696</ele>
        <time>2019-01-17T14:26:54Z</time>
      </trkpt>
      <trkpt lat="44.43639" lon="1.36667">
        <ele>123.833322</ele>
        <time>2019-01-17T14:27:18Z</time>
      </trkpt>
      <trkpt lat="44.43642" lon="1.36657">
        <ele>123.9337228</ele>
        <time>2019-01-17T14:27:51Z</time>
      </trkpt>
      <trkpt lat="44.43645" lon="1.36645">
        <ele>124.0341936</ele>
        <time>2019-01-17T14:28:00Z</time>
      </trkpt>
      <trkpt lat="44.43648" lon="1.36635">
        <ele>117.134616</ele>
        <time>2019-01-17T14:28:06Z</time>
      </trkpt>
      <trkpt lat="44.43653" lon="1.36626">
        <ele>116.034956</ele>
        <time>2019-01-17T14:28:12Z</time>
      </trkpt>
      <trkpt lat="44.43659" lon="1.36616">
        <ele>116.8353548</ele>
        <time>2019-01-17T14:28:20Z</time>
      </trkpt>
      <trkpt lat="44.43663" lon="1.36607">
        <ele>117.8357116</ele>
        <time>2019-01-17T14:28:29Z</time>
      </trkpt>
      <trkpt lat="44.43666" lon="1.36598">
        <ele>121.1360968</ele>
        <time>2019-01-17T14:28:36Z</time>
      </trkpt>
      <trkpt lat="44.43669" lon="1.36587">
        <ele>124.1365388</ele>
        <time>2019-01-17T14:28:44Z</time>
      </trkpt>
      <trkpt lat="44.43669" lon="1.36575">
        <ele>124.7370184</ele>
        <time>2019-01-17T14:28:52Z</time>
      </trkpt>
      <trkpt lat="44.43667" lon="1.36565">
        <ele>125.5374168</ele>
        <time>2019-01-17T14:29:00Z</time>
      </trkpt>
      <trkpt lat="44.43662" lon="1.36556">
        <ele>129.3377516</ele>
        <time>2019-01-17T14:29:08Z</time>
      </trkpt>
      <trkpt lat="44.43658" lon="1.36547">
        <ele>131.9381128</ele>
        <time>2019-01-17T14:29:18Z</time>
      </trkpt>
      <trkpt lat="44.43654" lon="1.36543">
        <ele>134.6382996</ele>
        <time>2019-01-17T14:29:24Z</time>
      </trkpt>
      <trkpt lat="44.43643" lon="1.36536">
        <ele>129.0385424</ele>
        <time>2019-01-17T14:29:29Z</time>
      </trkpt>
      <trkpt lat="44.43635" lon="1.36532">
        <ele>124.2387208</ele>
        <time>2019-01-17T14:29:34Z</time>
      </trkpt>
      <trkpt lat="44.43628" lon="1.36527">
        <ele>116.9389096</ele>
        <time>2019-01-17T14:29:40Z</time>
      </trkpt>
      <trkpt lat="44.43621" lon="1.3652">
        <ele>119.5391836</ele>
        <time>2019-01-17T14:29:48Z</time>
      </trkpt>
      <trkpt lat="44.43614" lon="1.36513">
        <ele>125.2394648</ele>
        <time>2019-01-17T14:29:58Z</time>
      </trkpt>
      <trkpt lat="44.43606" lon="1.3651">
        <ele>126.1396212</ele>
        <time>2019-01-17T14:30:06Z</time>
      </trkpt>
      <trkpt lat="44.43598" lon="1.36507">
        <ele>133.5397064</ele>
        <time>2019-01-17T14:30:17Z</time>
      </trkpt>
      <trkpt lat="44.4359" lon="1.36503">
        <ele>134.2398836</ele>
        <time>2019-01-17T14:30:24Z</time>
      </trkpt>
      <trkpt lat="44.43582" lon="1.365">
        <ele>142.4400216</ele>
        <time>2019-01-17T14:30:35Z</time>
      </trkpt>
      <trkpt lat="44.43573" lon="1.36495">
        <ele>137.2401868</ele>
        <time>2019-01-17T14:30:40Z</time>
      </trkpt>
      <trkpt lat="44.43565" lon="1.36493">
        <ele>139.6402972</ele>
        <time>2019-01-17T14:30:46Z</time>
      </trkpt>
      <trkpt lat="44.43559" lon="1.3649">
        <ele>144.7404024</ele>
        <time>2019-01-17T14:30:54Z</time>
      </trkpt>
      <trkpt lat="44.43552" lon="1.36484">
        <ele>144.2406356</ele>
        <time>2019-01-17T14:30:59Z</time>
      </trkpt>
      <trkpt lat="44.43544" lon="1.36483">
        <ele>143.7406936</ele>
        <time>2019-01-17T14:31:06Z</time>
      </trkpt>
      <trkpt lat="44.43537" lon="1.3648">
        <ele>148.7407832</ele>
        <time>2019-01-17T14:31:21Z</time>
      </trkpt>
      <trkpt lat="44.43529" lon="1.36479">
        <ele>149.8408304</ele>
        <time>2019-01-17T14:31:26Z</time>
      </trkpt>
      <trkpt lat="44.43522" lon="1.36478">
        <ele>152.0408672</ele>
        <time>2019-01-17T14:31:32Z</time>
      </trkpt>
      <trkpt lat="44.43514" lon="1.36475">
        <ele>158.4410048</ele>
        <time>2019-01-17T14:31:41Z</time>
      </trkpt>
      <trkpt lat="44.43507" lon="1.36472">
        <ele>163.7411136</ele>
        <time>2019-01-17T14:31:48Z</time>
      </trkpt>
      <trkpt lat="44.43499" lon="1.36467">
        <ele>163.1413104</ele>
        <time>2019-01-17T14:31:56Z</time>
      </trkpt>
      <trkpt lat="44.43494" lon="1.36461">
        <ele>149.141542</ele>
        <time>2019-01-17T14:32:10Z</time>
      </trkpt>
      <trkpt lat="44.43489" lon="1.36458">
        <ele>145.6416888</ele>
        <time>2019-01-17T14:32:13Z</time>
      </trkpt>
      <trkpt lat="44.43478" lon="1.36452">
        <ele>139.2419036</ele>
        <time>2019-01-17T14:32:18Z</time>
      </trkpt>
      <trkpt lat="44.43468" lon="1.3645">
        <ele>135.4420064</ele>
        <time>2019-01-17T14:32:22Z</time>
      </trkpt>
      <trkpt lat="44.4346" lon="1.36447">
        <ele>129.8421092</ele>
        <time>2019-01-17T14:32:26Z</time>
      </trkpt>
      <trkpt lat="44.43453" lon="1.36444">
        <ele>130.142228</ele>
        <time>2019-01-17T14:32:30Z</time>
      </trkpt>
      <trkpt lat="44.43444" lon="1.36446">
        <ele>130.2421728</ele>
        <time>2019-01-17T14:32:36Z</time>
      </trkpt>
      <trkpt lat="44.43437" lon="1.36443">
        <ele>132.3422948</ele>
        <time>2019-01-17T14:32:42Z</time>
      </trkpt>
      <trkpt lat="44.4343" lon="1.36439">
        <ele>134.6424476</ele>
        <time>2019-01-17T14:32:49Z</time>
      </trkpt>
      <trkpt lat="44.43425" lon="1.36433">
        <ele>139.342672</ele>
        <time>2019-01-17T14:32:54Z</time>
      </trkpt>
      <trkpt lat="44.43418" lon="1.36428">
        <ele>136.0428884</ele>
        <time>2019-01-17T14:32:59Z</time>
      </trkpt>
      <trkpt lat="44.43413" lon="1.36424">
        <ele>138.8430552</ele>
        <time>2019-01-17T14:33:05Z</time>
      </trkpt>
      <trkpt lat="44.43406" lon="1.36419">
        <ele>141.6432536</ele>
        <time>2019-01-17T14:33:11Z</time>
      </trkpt>
      <trkpt lat="44.43397" lon="1.36415">
        <ele>147.7433944</ele>
        <time>2019-01-17T14:33:20Z</time>
      </trkpt>
      <trkpt lat="44.4339" lon="1.3641">
        <ele>146.1436128</ele>
        <time>2019-01-17T14:33:24Z</time>
      </trkpt>
      <trkpt lat="44.43382" lon="1.36405">
        <ele>155.1438004</ele>
        <time>2019-01-17T14:33:32Z</time>
      </trkpt>
      <trkpt lat="44.43379" lon="1.36393">
        <ele>160.944262</ele>
        <time>2019-01-17T14:33:40Z</time>
      </trkpt>
      <trkpt lat="44.43381" lon="1.36382">
        <ele>159.5447376</ele>
        <time>2019-01-17T14:33:48Z</time>
      </trkpt>
      <trkpt lat="44.43383" lon="1.36371">
        <ele>155.845144</ele>
        <time>2019-01-17T14:33:54Z</time>
      </trkpt>
      <trkpt lat="44.43379" lon="1.36361">
        <ele>167.2455432</ele>
        <time>2019-01-17T14:34:11Z</time>
      </trkpt>
      <trkpt lat="44.43372" lon="1.36356">
        <ele>165.9457784</ele>
        <time>2019-01-17T14:34:20Z</time>
      </trkpt>
      <trkpt lat="44.43364" lon="1.36349">
        <ele>161.8460412</ele>
        <time>2019-01-17T14:34:26Z</time>
      </trkpt>
      <trkpt lat="44.43356" lon="1.36345">
        <ele>158.2462028</ele>
        <time>2019-01-17T14:34:33Z</time>
      </trkpt>
      <trkpt lat="44.43348" lon="1.36344">
        <ele>161.2462384</ele>
        <time>2019-01-17T14:34:46Z</time>
      </trkpt>
      <trkpt lat="44.43341" lon="1.36342">
        <ele>159.4463312</ele>
        <time>2019-01-17T14:34:54Z</time>
      </trkpt>
      <trkpt lat="44.43333" lon="1.36339">
        <ele>158.3464328</ele>
        <time>2019-01-17T14:34:57Z</time>
      </trkpt>
      <trkpt lat="44.43325" lon="1.36335">
        <ele>159.4466088</ele>
        <time>2019-01-17T14:35:05Z</time>
      </trkpt>
      <trkpt lat="44.4332" lon="1.36331">
        <ele>157.5467704</ele>
        <time>2019-01-17T14:35:09Z</time>
      </trkpt>
      <trkpt lat="44.43312" lon="1.36327">
        <ele>156.0469092</ele>
        <time>2019-01-17T14:35:13Z</time>
      </trkpt>
      <trkpt lat="44.43303" lon="1.36324">
        <ele>151.2470516</ele>
        <time>2019-01-17T14:35:18Z</time>
      </trkpt>
      <trkpt lat="44.43296" lon="1.36319">
        <ele>142.5472368</ele>
        <time>2019-01-17T14:35:23Z</time>
      </trkpt>
      <trkpt lat="44.43286" lon="1.36311">
        <ele>133.6475596</ele>
        <time>2019-01-17T14:35:28Z</time>
      </trkpt>
      <trkpt lat="44.43278" lon="1.36306">
        <ele>133.2477664</ele>
        <time>2019-01-17T14:35:34Z</time>
      </trkpt>
      <trkpt lat="44.43271" lon="1.36301">
        <ele>134.3479488</ele>
        <time>2019-01-17T14:35:44Z</time>
      </trkpt>
      <trkpt lat="44.43265" lon="1.36296">
        <ele>136.2481592</ele>
        <time>2019-01-17T14:35:52Z</time>
      </trkpt>
      <trkpt lat="44.43257" lon="1.36289">
        <ele>141.5484436</ele>
        <time>2019-01-17T14:36:03Z</time>
      </trkpt>
      <trkpt lat="44.43251" lon="1.36284">
        <ele>143.2486312</ele>
        <time>2019-01-17T14:36:10Z</time>
      </trkpt>
      <trkpt lat="44.43243" lon="1.36278">
        <ele>147.0488836</ele>
        <time>2019-01-17T14:36:16Z</time>
      </trkpt>
      <trkpt lat="44.43235" lon="1.36274">
        <ele>148.1490264</ele>
        <time>2019-01-17T14:36:22Z</time>
      </trkpt>
      <trkpt lat="44.43226" lon="1.36271">
        <ele>143.9491676</ele>
        <time>2019-01-17T14:36:26Z</time>
      </trkpt>
      <trkpt lat="44.43218" lon="1.36267">
        <ele>143.149338</ele>
        <time>2019-01-17T14:36:33Z</time>
      </trkpt>
      <trkpt lat="44.4321" lon="1.36261">
        <ele>140.8495816</ele>
        <time>2019-01-17T14:36:45Z</time>
      </trkpt>
      <trkpt lat="44.43202" lon="1.36258">
        <ele>155.3496808</ele>
        <time>2019-01-17T14:36:57Z</time>
      </trkpt>
      <trkpt lat="44.43193" lon="1.36256">
        <ele>156.6497592</ele>
        <time>2019-01-17T14:37:04Z</time>
      </trkpt>
      <trkpt lat="44.43185" lon="1.36254">
        <ele>166.1498384</ele>
        <time>2019-01-17T14:37:15Z</time>
      </trkpt>
      <trkpt lat="44.43178" lon="1.36252">
        <ele>160.7499332</ele>
        <time>2019-01-17T14:37:20Z</time>
      </trkpt>
      <trkpt lat="44.4317" lon="1.36247">
        <ele>157.3501036</ele>
        <time>2019-01-17T14:37:25Z</time>
      </trkpt>
      <trkpt lat="44.43165" lon="1.36237">
        <ele>134.5505256</ele>
        <time>2019-01-17T14:38:05Z</time>
      </trkpt>
      <trkpt lat="44.4317" lon="1.36227">
        <ele>138.1509388</ele>
        <time>2019-01-17T14:38:16Z</time>
      </trkpt>
      <trkpt lat="44.43162" lon="1.36227">
        <ele>135.1509168</ele>
        <time>2019-01-17T14:38:35Z</time>
      </trkpt>
      <trkpt lat="44.4316" lon="1.36239">
        <ele>156.2504588</ele>
        <time>2019-01-17T14:41:18Z</time>
      </trkpt>
      <trkpt lat="44.43154" lon="1.36248">
        <ele>149.2500964</ele>
        <time>2019-01-17T14:41:32Z</time>
      </trkpt>
      <trkpt lat="44.4315" lon="1.36257">
        <ele>151.449712</ele>
        <time>2019-01-17T14:41:40Z</time>
      </trkpt>
      <trkpt lat="44.43147" lon="1.36267">
        <ele>155.7493252</ele>
        <time>2019-01-17T14:41:46Z</time>
      </trkpt>
      <trkpt lat="44.43144" lon="1.36279">
        <ele>164.048858</ele>
        <time>2019-01-17T14:41:56Z</time>
      </trkpt>
      <trkpt lat="44.43143" lon="1.36291">
        <ele>162.3483708</ele>
        <time>2019-01-17T14:42:03Z</time>
      </trkpt>
      <trkpt lat="44.43137" lon="1.36301">
        <ele>165.0479672</ele>
        <time>2019-01-17T14:42:11Z</time>
      </trkpt>
      <trkpt lat="44.43131" lon="1.36308">
        <ele>170.8476704</ele>
        <time>2019-01-17T14:42:18Z</time>
      </trkpt>
      <trkpt lat="44.43125" lon="1.36313">
        <ele>171.947472</ele>
        <time>2019-01-17T14:42:24Z</time>
      </trkpt>
      <trkpt lat="44.43123" lon="1.36322">
        <ele>168.347112</ele>
        <time>2019-01-17T14:42:30Z</time>
      </trkpt>
      <trkpt lat="44.43119" lon="1.36334">
        <ele>174.0466604</ele>
        <time>2019-01-17T14:42:50Z</time>
      </trkpt>
      <trkpt lat="44.43113" lon="1.36339">
        <ele>177.146456</ele>
        <time>2019-01-17T14:42:56Z</time>
      </trkpt>
      <trkpt lat="44.43106" lon="1.36343">
        <ele>175.4462828</ele>
        <time>2019-01-17T14:43:06Z</time>
      </trkpt>
      <trkpt lat="44.431" lon="1.36351">
        <ele>173.645952</ele>
        <time>2019-01-17T14:43:12Z</time>
      </trkpt>
      <trkpt lat="44.43092" lon="1.36357">
        <ele>187.0457096</ele>
        <time>2019-01-17T14:43:29Z</time>
      </trkpt>
      <trkpt lat="44.43085" lon="1.3636">
        <ele>191.4456204</ele>
        <time>2019-01-17T14:43:41Z</time>
      </trkpt>
      <trkpt lat="44.43077" lon="1.36366">
        <ele>195.7453772</ele>
        <time>2019-01-17T14:43:45Z</time>
      </trkpt>
      <trkpt lat="44.4307" lon="1.36373">
        <ele>198.6450732</ele>
        <time>2019-01-17T14:43:52Z</time>
      </trkpt>
      <trkpt lat="44.43069" lon="1.36385">
        <ele>201.044606</ele>
        <time>2019-01-17T14:44:01Z</time>
      </trkpt>
      <trkpt lat="44.43064" lon="1.36392">
        <ele>198.4443256</ele>
        <time>2019-01-17T14:44:12Z</time>
      </trkpt>
      <trkpt lat="44.43057" lon="1.36399">
        <ele>199.0440384</ele>
        <time>2019-01-17T14:44:20Z</time>
      </trkpt>
      <trkpt lat="44.43049" lon="1.36403">
        <ele>203.3438948</ele>
        <time>2019-01-17T14:44:36Z</time>
      </trkpt>
      <trkpt lat="44.43041" lon="1.36412">
        <ele>201.8435156</ele>
        <time>2019-01-17T14:44:41Z</time>
      </trkpt>
      <trkpt lat="44.43035" lon="1.3642">
        <ele>200.1431872</ele>
        <time>2019-01-17T14:44:46Z</time>
      </trkpt>
      <trkpt lat="44.43028" lon="1.36427">
        <ele>193.5429376</ele>
        <time>2019-01-17T14:44:52Z</time>
      </trkpt>
      <trkpt lat="44.4302" lon="1.36429">
        <ele>192.3428572</ele>
        <time>2019-01-17T14:45:01Z</time>
      </trkpt>
      <trkpt lat="44.43014" lon="1.36435">
        <ele>186.9425908</ele>
        <time>2019-01-17T14:45:06Z</time>
      </trkpt>
      <trkpt lat="44.43007" lon="1.36441">
        <ele>182.942374</ele>
        <time>2019-01-17T14:45:11Z</time>
      </trkpt>
      <trkpt lat="44.43" lon="1.36444">
        <ele>178.1422392</ele>
        <time>2019-01-17T14:45:16Z</time>
      </trkpt>
      <trkpt lat="44.42992" lon="1.36449">
        <ele>186.9420592</ele>
        <time>2019-01-17T14:45:30Z</time>
      </trkpt>
      <trkpt lat="44.42985" lon="1.36455">
        <ele>182.441782</ele>
        <time>2019-01-17T14:45:36Z</time>
      </trkpt>
      <trkpt lat="44.42983" lon="1.36467">
        <ele>192.3413356</ele>
        <time>2019-01-17T14:45:49Z</time>
      </trkpt>
      <trkpt lat="44.42978" lon="1.36472">
        <ele>192.9411156</ele>
        <time>2019-01-17T14:45:57Z</time>
      </trkpt>
      <trkpt lat="44.42971" lon="1.36479">
        <ele>190.2408616</ele>
        <time>2019-01-17T14:46:02Z</time>
      </trkpt>
      <trkpt lat="44.42965" lon="1.36485">
        <ele>190.7406092</ele>
        <time>2019-01-17T14:46:09Z</time>
      </trkpt>
      <trkpt lat="44.42957" lon="1.36492">
        <ele>197.4403292</ele>
        <time>2019-01-17T14:46:24Z</time>
      </trkpt>
      <trkpt lat="44.42949" lon="1.36496">
        <ele>193.0401528</ele>
        <time>2019-01-17T14:46:29Z</time>
      </trkpt>
      <trkpt lat="44.42942" lon="1.36502">
        <ele>186.13991</ele>
        <time>2019-01-17T14:46:33Z</time>
      </trkpt>
      <trkpt lat="44.42935" lon="1.36507">
        <ele>180.8397108</ele>
        <time>2019-01-17T14:46:38Z</time>
      </trkpt>
      <trkpt lat="44.42927" lon="1.3651">
        <ele>191.4395852</ele>
        <time>2019-01-17T14:46:57Z</time>
      </trkpt>
      <trkpt lat="44.42919" lon="1.36516">
        <ele>190.639364</ele>
        <time>2019-01-17T14:47:07Z</time>
      </trkpt>
      <trkpt lat="44.42912" lon="1.36521">
        <ele>189.13917</ele>
        <time>2019-01-17T14:47:16Z</time>
      </trkpt>
      <trkpt lat="44.42906" lon="1.3653">
        <ele>202.5387956</ele>
        <time>2019-01-17T14:47:33Z</time>
      </trkpt>
      <trkpt lat="44.42902" lon="1.36539">
        <ele>205.5384268</ele>
        <time>2019-01-17T14:47:48Z</time>
      </trkpt>
      <trkpt lat="44.42898" lon="1.36546">
        <ele>207.2381608</ele>
        <time>2019-01-17T14:47:57Z</time>
      </trkpt>
      <trkpt lat="44.42891" lon="1.36552">
        <ele>209.1379412</ele>
        <time>2019-01-17T14:48:02Z</time>
      </trkpt>
      <trkpt lat="44.42885" lon="1.3656">
        <ele>206.2376216</ele>
        <time>2019-01-17T14:48:12Z</time>
      </trkpt>
      <trkpt lat="44.42878" lon="1.36566">
        <ele>211.3373516</ele>
        <time>2019-01-17T14:48:29Z</time>
      </trkpt>
      <trkpt lat="44.42876" lon="1.36578">
        <ele>219.8368776</ele>
        <time>2019-01-17T14:48:44Z</time>
      </trkpt>
      <trkpt lat="44.42869" lon="1.36585">
        <ele>229.9366096</ele>
        <time>2019-01-17T14:48:59Z</time>
      </trkpt>
      <trkpt lat="44.42861" lon="1.36588">
        <ele>233.436464</ele>
        <time>2019-01-17T14:49:12Z</time>
      </trkpt>
      <trkpt lat="44.42855" lon="1.36596">
        <ele>228.5361544</ele>
        <time>2019-01-17T14:49:26Z</time>
      </trkpt>
      <trkpt lat="44.42854" lon="1.36608">
        <ele>230.9356748</ele>
        <time>2019-01-17T14:49:39Z</time>
      </trkpt>
      <trkpt lat="44.42848" lon="1.36616">
        <ele>234.7353524</ele>
        <time>2019-01-17T14:49:58Z</time>
      </trkpt>
      <trkpt lat="44.42839" lon="1.36618">
        <ele>233.3352836</ele>
        <time>2019-01-17T14:50:08Z</time>
      </trkpt>
      <trkpt lat="44.42832" lon="1.36612">
        <ele>228.93552</ele>
        <time>2019-01-17T14:50:21Z</time>
      </trkpt>
      <trkpt lat="44.42824" lon="1.36606">
        <ele>221.8357612</ele>
        <time>2019-01-17T14:50:39Z</time>
      </trkpt>
      <trkpt lat="44.42822" lon="1.36617">
        <ele>223.3353076</ele>
        <time>2019-01-17T14:51:15Z</time>
      </trkpt>
      <trkpt lat="44.42825" lon="1.36629">
        <ele>241.2348472</ele>
        <time>2019-01-17T14:51:36Z</time>
      </trkpt>
      <trkpt lat="44.42821" lon="1.36633">
        <ele>236.7346756</ele>
        <time>2019-01-17T14:51:39Z</time>
      </trkpt>
      <trkpt lat="44.42813" lon="1.36638">
        <ele>231.9345008</ele>
        <time>2019-01-17T14:51:44Z</time>
      </trkpt>
      <trkpt lat="44.42808" lon="1.36648">
        <ele>227.534098</ele>
        <time>2019-01-17T14:52:02Z</time>
      </trkpt>
      <trkpt lat="44.428" lon="1.36653">
        <ele>229.6338976</ele>
        <time>2019-01-17T14:52:16Z</time>
      </trkpt>
      <trkpt lat="44.42791" lon="1.36655">
        <ele>220.1338028</ele>
        <time>2019-01-17T14:55:45Z</time>
      </trkpt>
      <trkpt lat="44.42793" lon="1.36666">
        <ele>229.9333476</ele>
        <time>2019-01-17T14:59:20Z</time>
      </trkpt>
      <trkpt lat="44.42791" lon="1.36677">
        <ele>231.2329052</ele>
        <time>2019-01-17T14:59:29Z</time>
      </trkpt>
      <trkpt lat="44.4279" lon="1.36666">
        <ele>231.0333596</ele>
        <time>2019-01-17T14:59:58Z</time>
      </trkpt>
      <trkpt lat="44.4279" lon="1.36678">
        <ele>230.4328888</ele>
        <time>2019-01-17T15:10:16Z</time>
      </trkpt>
      <trkpt lat="44.42787" lon="1.36689">
        <ele>230.6324336</ele>
        <time>2019-01-17T15:10:23Z</time>
      </trkpt>
      <trkpt lat="44.42785" lon="1.367">
        <ele>232.4320176</ele>
        <time>2019-01-17T15:10:30Z</time>
      </trkpt>
      <trkpt lat="44.42784" lon="1.36709">
        <ele>235.7316224</ele>
        <time>2019-01-17T15:10:39Z</time>
      </trkpt>
      <trkpt lat="44.42781" lon="1.36721">
        <ele>237.131172</ele>
        <time>2019-01-17T15:10:48Z</time>
      </trkpt>
      <trkpt lat="44.42779" lon="1.3673">
        <ele>236.530784</ele>
        <time>2019-01-17T15:10:56Z</time>
      </trkpt>
      <trkpt lat="44.42776" lon="1.36741">
        <ele>237.4303464</ele>
        <time>2019-01-17T15:11:05Z</time>
      </trkpt>
      <trkpt lat="44.42773" lon="1.36752">
        <ele>237.6299396</ele>
        <time>2019-01-17T15:11:12Z</time>
      </trkpt>
      <trkpt lat="44.42766" lon="1.36759">
        <ele>227.6296228</ele>
        <time>2019-01-17T15:13:09Z</time>
      </trkpt>
      <trkpt lat="44.42758" lon="1.36762">
        <ele>235.8295228</ele>
        <time>2019-01-17T15:14:18Z</time>
      </trkpt>
      <trkpt lat="44.42749" lon="1.36758">
        <ele>238.4296624</ele>
        <time>2019-01-17T15:14:29Z</time>
      </trkpt>
      <trkpt lat="44.42742" lon="1.36752">
        <ele>240.7299208</ele>
        <time>2019-01-17T15:14:39Z</time>
      </trkpt>
      <trkpt lat="44.42734" lon="1.36746">
        <ele>238.3301444</ele>
        <time>2019-01-17T15:14:48Z</time>
      </trkpt>
      <trkpt lat="44.42728" lon="1.36742">
        <ele>236.630318</ele>
        <time>2019-01-17T15:14:54Z</time>
      </trkpt>
      <trkpt lat="44.4272" lon="1.36739">
        <ele>232.7304548</ele>
        <time>2019-01-17T15:15:01Z</time>
      </trkpt>
      <trkpt lat="44.42711" lon="1.36736">
        <ele>235.7305628</ele>
        <time>2019-01-17T15:15:11Z</time>
      </trkpt>
      <trkpt lat="44.42703" lon="1.36733">
        <ele>238.4306896</ele>
        <time>2019-01-17T15:15:20Z</time>
      </trkpt>
      <trkpt lat="44.42695" lon="1.36731">
        <ele>238.7307464</ele>
        <time>2019-01-17T15:15:27Z</time>
      </trkpt>
      <trkpt lat="44.42687" lon="1.36732">
        <ele>238.330718</ele>
        <time>2019-01-17T15:15:34Z</time>
      </trkpt>
      <trkpt lat="44.42679" lon="1.36733">
        <ele>238.1306848</ele>
        <time>2019-01-17T15:15:41Z</time>
      </trkpt>
      <trkpt lat="44.42671" lon="1.36735">
        <ele>239.6306212</ele>
        <time>2019-01-17T15:15:48Z</time>
      </trkpt>
      <trkpt lat="44.42663" lon="1.36736">
        <ele>239.1305648</ele>
        <time>2019-01-17T15:15:54Z</time>
      </trkpt>
      <trkpt lat="44.42655" lon="1.3674">
        <ele>240.7303824</ele>
        <time>2019-01-17T15:16:05Z</time>
      </trkpt>
      <trkpt lat="44.42647" lon="1.36744">
        <ele>243.2302444</ele>
        <time>2019-01-17T15:16:15Z</time>
      </trkpt>
      <trkpt lat="44.42639" lon="1.36744">
        <ele>244.3302584</ele>
        <time>2019-01-17T15:16:23Z</time>
      </trkpt>
      <trkpt lat="44.42631" lon="1.36741">
        <ele>240.2303476</ele>
        <time>2019-01-17T15:16:30Z</time>
      </trkpt>
      <trkpt lat="44.42623" lon="1.36744">
        <ele>240.8302224</ele>
        <time>2019-01-17T15:16:39Z</time>
      </trkpt>
      <trkpt lat="44.42614" lon="1.36748">
        <ele>243.5300968</ele>
        <time>2019-01-17T15:16:48Z</time>
      </trkpt>
      <trkpt lat="44.42606" lon="1.3675">
        <ele>245.3299848</ele>
        <time>2019-01-17T15:16:56Z</time>
      </trkpt>
      <trkpt lat="44.42599" lon="1.36753">
        <ele>245.9298812</ele>
        <time>2019-01-17T15:17:03Z</time>
      </trkpt>
      <trkpt lat="44.42592" lon="1.36756">
        <ele>245.0297692</ele>
        <time>2019-01-17T15:17:07Z</time>
      </trkpt>
      <trkpt lat="44.42584" lon="1.36759">
        <ele>246.0296356</ele>
        <time>2019-01-17T15:17:14Z</time>
      </trkpt>
      <trkpt lat="44.42575" lon="1.36763">
        <ele>246.6294908</ele>
        <time>2019-01-17T15:17:22Z</time>
      </trkpt>
      <trkpt lat="44.42568" lon="1.36768">
        <ele>247.529264</ele>
        <time>2019-01-17T15:17:32Z</time>
      </trkpt>
      <trkpt lat="44.42559" lon="1.36771">
        <ele>247.6291784</ele>
        <time>2019-01-17T15:17:40Z</time>
      </trkpt>
      <trkpt lat="44.42551" lon="1.36772">
        <ele>246.9291084</ele>
        <time>2019-01-17T15:17:47Z</time>
      </trkpt>
      <trkpt lat="44.42542" lon="1.36773">
        <ele>244.4290864</ele>
        <time>2019-01-17T15:17:53Z</time>
      </trkpt>
      <trkpt lat="44.42534" lon="1.36774">
        <ele>244.4290508</ele>
        <time>2019-01-17T15:18:00Z</time>
      </trkpt>
      <trkpt lat="44.42525" lon="1.36777">
        <ele>243.6289292</ele>
        <time>2019-01-17T15:18:08Z</time>
      </trkpt>
      <trkpt lat="44.42517" lon="1.36779">
        <ele>242.6288612</ele>
        <time>2019-01-17T15:18:15Z</time>
      </trkpt>
      <trkpt lat="44.42509" lon="1.36781">
        <ele>241.5287756</ele>
        <time>2019-01-17T15:18:23Z</time>
      </trkpt>
      <trkpt lat="44.42501" lon="1.36783">
        <ele>241.528686</ele>
        <time>2019-01-17T15:18:29Z</time>
      </trkpt>
      <trkpt lat="44.42493" lon="1.36786">
        <ele>242.1285796</ele>
        <time>2019-01-17T15:18:36Z</time>
      </trkpt>
      <trkpt lat="44.42485" lon="1.36788">
        <ele>242.028484</ele>
        <time>2019-01-17T15:18:42Z</time>
      </trkpt>
      <trkpt lat="44.42478" lon="1.36792">
        <ele>243.0283196</ele>
        <time>2019-01-17T15:18:50Z</time>
      </trkpt>
      <trkpt lat="44.4247" lon="1.36796">
        <ele>243.8281612</ele>
        <time>2019-01-17T15:18:57Z</time>
      </trkpt>
      <trkpt lat="44.42462" lon="1.36799">
        <ele>245.72805</ele>
        <time>2019-01-17T15:19:12Z</time>
      </trkpt>
      <trkpt lat="44.42454" lon="1.36804">
        <ele>250.1278404</ele>
        <time>2019-01-17T15:19:35Z</time>
      </trkpt>
      <trkpt lat="44.42447" lon="1.3681">
        <ele>249.6275896</ele>
        <time>2019-01-17T15:19:43Z</time>
      </trkpt>
      <trkpt lat="44.42439" lon="1.36815">
        <ele>247.5273948</ele>
        <time>2019-01-17T15:19:51Z</time>
      </trkpt>
      <trkpt lat="44.42431" lon="1.36819">
        <ele>244.4272588</ele>
        <time>2019-01-17T15:19:59Z</time>
      </trkpt>
      <trkpt lat="44.42424" lon="1.36819">
        <ele>241.0272608</ele>
        <time>2019-01-17T15:20:03Z</time>
      </trkpt>
      <trkpt lat="44.42417" lon="1.36822">
        <ele>240.4271324</ele>
        <time>2019-01-17T15:20:09Z</time>
      </trkpt>
      <trkpt lat="44.42411" lon="1.36829">
        <ele>240.5268248</ele>
        <time>2019-01-17T15:20:17Z</time>
      </trkpt>
      <trkpt lat="44.42403" lon="1.36836">
        <ele>241.7265724</ele>
        <time>2019-01-17T15:20:26Z</time>
      </trkpt>
      <trkpt lat="44.42396" lon="1.36836">
        <ele>241.726544</ele>
        <time>2019-01-17T15:20:34Z</time>
      </trkpt>
      <trkpt lat="44.42389" lon="1.36838">
        <ele>239.3264644</ele>
        <time>2019-01-17T15:20:40Z</time>
      </trkpt>
      <trkpt lat="44.4238" lon="1.36839">
        <ele>240.0264224</ele>
        <time>2019-01-17T15:20:48Z</time>
      </trkpt>
      <trkpt lat="44.42372" lon="1.36839">
        <ele>239.6264308</ele>
        <time>2019-01-17T15:20:54Z</time>
      </trkpt>
      <trkpt lat="44.42365" lon="1.3684">
        <ele>239.3264164</ele>
        <time>2019-01-17T15:20:59Z</time>
      </trkpt>
      <trkpt lat="44.42357" lon="1.36837">
        <ele>236.1265308</ele>
        <time>2019-01-17T15:21:07Z</time>
      </trkpt>
      <trkpt lat="44.42348" lon="1.36836">
        <ele>236.3265528</ele>
        <time>2019-01-17T15:21:14Z</time>
      </trkpt>
      <trkpt lat="44.42339" lon="1.36837">
        <ele>237.3265328</ele>
        <time>2019-01-17T15:21:22Z</time>
      </trkpt>
      <trkpt lat="44.42331" lon="1.36839">
        <ele>238.0264492</ele>
        <time>2019-01-17T15:21:29Z</time>
      </trkpt>
      <trkpt lat="44.42323" lon="1.36841">
        <ele>239.3263728</ele>
        <time>2019-01-17T15:21:37Z</time>
      </trkpt>
      <trkpt lat="44.42315" lon="1.36842">
        <ele>240.726318</ele>
        <time>2019-01-17T15:21:45Z</time>
      </trkpt>
      <trkpt lat="44.42306" lon="1.36842">
        <ele>242.8263208</ele>
        <time>2019-01-17T15:21:52Z</time>
      </trkpt>
      <trkpt lat="44.42297" lon="1.36843">
        <ele>246.6262872</ele>
        <time>2019-01-17T15:22:00Z</time>
      </trkpt>
      <trkpt lat="44.42288" lon="1.36843">
        <ele>245.8262652</ele>
        <time>2019-01-17T15:22:08Z</time>
      </trkpt>
      <trkpt lat="44.4228" lon="1.36843">
        <ele>243.5262952</ele>
        <time>2019-01-17T15:22:16Z</time>
      </trkpt>
      <trkpt lat="44.42271" lon="1.36844">
        <ele>242.726256</ele>
        <time>2019-01-17T15:22:23Z</time>
      </trkpt>
      <trkpt lat="44.42263" lon="1.36844">
        <ele>241.6262536</ele>
        <time>2019-01-17T15:22:30Z</time>
      </trkpt>
      <trkpt lat="44.42255" lon="1.36844">
        <ele>241.3262268</ele>
        <time>2019-01-17T15:22:38Z</time>
      </trkpt>
      <trkpt lat="44.42247" lon="1.36843">
        <ele>242.1262676</ele>
        <time>2019-01-17T15:22:44Z</time>
      </trkpt>
      <trkpt lat="44.42238" lon="1.36842">
        <ele>242.6263228</ele>
        <time>2019-01-17T15:22:50Z</time>
      </trkpt>
      <trkpt lat="44.4223" lon="1.36839">
        <ele>242.4264236</ele>
        <time>2019-01-17T15:22:56Z</time>
      </trkpt>
      <trkpt lat="44.42222" lon="1.36836">
        <ele>243.4265428</ele>
        <time>2019-01-17T15:23:03Z</time>
      </trkpt>
      <trkpt lat="44.42214" lon="1.36834">
        <ele>243.826646</ele>
        <time>2019-01-17T15:23:09Z</time>
      </trkpt>
      <trkpt lat="44.42206" lon="1.3683">
        <ele>243.02679</ele>
        <time>2019-01-17T15:23:17Z</time>
      </trkpt>
      <trkpt lat="44.42198" lon="1.36829">
        <ele>242.6268552</ele>
        <time>2019-01-17T15:23:24Z</time>
      </trkpt>
      <trkpt lat="44.4219" lon="1.36826">
        <ele>242.826948</ele>
        <time>2019-01-17T15:23:31Z</time>
      </trkpt>
      <trkpt lat="44.42183" lon="1.36824">
        <ele>241.7270544</ele>
        <time>2019-01-17T15:23:37Z</time>
      </trkpt>
      <trkpt lat="44.42176" lon="1.36821">
        <ele>242.3271728</ele>
        <time>2019-01-17T15:23:43Z</time>
      </trkpt>
      <trkpt lat="44.42169" lon="1.36818">
        <ele>240.9272696</ele>
        <time>2019-01-17T15:23:49Z</time>
      </trkpt>
      <trkpt lat="44.42161" lon="1.36815">
        <ele>240.7273952</ele>
        <time>2019-01-17T15:23:57Z</time>
      </trkpt>
      <trkpt lat="44.42152" lon="1.36813">
        <ele>240.6274956</ele>
        <time>2019-01-17T15:24:06Z</time>
      </trkpt>
      <trkpt lat="44.42145" lon="1.36811">
        <ele>240.627542</ele>
        <time>2019-01-17T15:24:12Z</time>
      </trkpt>
      <trkpt lat="44.42138" lon="1.36809">
        <ele>240.9276424</ele>
        <time>2019-01-17T15:24:19Z</time>
      </trkpt>
      <trkpt lat="44.42129" lon="1.36808">
        <ele>242.0276728</ele>
        <time>2019-01-17T15:24:28Z</time>
      </trkpt>
      <trkpt lat="44.4212" lon="1.36807">
        <ele>242.427734</ele>
        <time>2019-01-17T15:24:35Z</time>
      </trkpt>
      <trkpt lat="44.42113" lon="1.36805">
        <ele>243.5278128</ele>
        <time>2019-01-17T15:24:41Z</time>
      </trkpt>
      <trkpt lat="44.42104" lon="1.36803">
        <ele>245.4278932</ele>
        <time>2019-01-17T15:24:48Z</time>
      </trkpt>
      <trkpt lat="44.42096" lon="1.36803">
        <ele>246.6279</ele>
        <time>2019-01-17T15:24:55Z</time>
      </trkpt>
      <trkpt lat="44.42088" lon="1.36803">
        <ele>247.5278916</ele>
        <time>2019-01-17T15:25:01Z</time>
      </trkpt>
      <trkpt lat="44.4208" lon="1.36803">
        <ele>249.7278876</ele>
        <time>2019-01-17T15:25:08Z</time>
      </trkpt>
      <trkpt lat="44.42071" lon="1.36803">
        <ele>250.8278896</ele>
        <time>2019-01-17T15:25:15Z</time>
      </trkpt>
      <trkpt lat="44.42064" lon="1.36804">
        <ele>251.7278588</ele>
        <time>2019-01-17T15:25:21Z</time>
      </trkpt>
      <trkpt lat="44.42057" lon="1.36803">
        <ele>250.2278996</ele>
        <time>2019-01-17T15:25:28Z</time>
      </trkpt>
      <trkpt lat="44.42048" lon="1.36801">
        <ele>248.5279604</ele>
        <time>2019-01-17T15:25:35Z</time>
      </trkpt>
      <trkpt lat="44.4204" lon="1.368">
        <ele>248.0279996</ele>
        <time>2019-01-17T15:25:42Z</time>
      </trkpt>
      <trkpt lat="44.42032" lon="1.36799">
        <ele>249.8280576</ele>
        <time>2019-01-17T15:25:49Z</time>
      </trkpt>
      <trkpt lat="44.42025" lon="1.36797">
        <ele>249.9281076</ele>
        <time>2019-01-17T15:25:55Z</time>
      </trkpt>
      <trkpt lat="44.42018" lon="1.36795">
        <ele>249.028216</ele>
        <time>2019-01-17T15:26:01Z</time>
      </trkpt>
      <trkpt lat="44.42011" lon="1.36793">
        <ele>248.6283016</ele>
        <time>2019-01-17T15:26:07Z</time>
      </trkpt>
      <trkpt lat="44.42003" lon="1.3679">
        <ele>246.52839</ele>
        <time>2019-01-17T15:26:14Z</time>
      </trkpt>
      <trkpt lat="44.41996" lon="1.36787">
        <ele>246.228516</ele>
        <time>2019-01-17T15:26:21Z</time>
      </trkpt>
      <trkpt lat="44.41987" lon="1.36784">
        <ele>245.7286572</ele>
        <time>2019-01-17T15:26:29Z</time>
      </trkpt>
      <trkpt lat="44.4198" lon="1.3678">
        <ele>244.4287872</ele>
        <time>2019-01-17T15:26:37Z</time>
      </trkpt>
      <trkpt lat="44.41973" lon="1.36776">
        <ele>244.4289512</ele>
        <time>2019-01-17T15:26:45Z</time>
      </trkpt>
      <trkpt lat="44.41967" lon="1.36772">
        <ele>244.3291152</ele>
        <time>2019-01-17T15:26:51Z</time>
      </trkpt>
      <trkpt lat="44.41959" lon="1.36768">
        <ele>243.3292908</ele>
        <time>2019-01-17T15:26:57Z</time>
      </trkpt>
      <trkpt lat="44.41952" lon="1.36764">
        <ele>243.5294316</ele>
        <time>2019-01-17T15:27:03Z</time>
      </trkpt>
      <trkpt lat="44.41945" lon="1.36762">
        <ele>243.9295348</ele>
        <time>2019-01-17T15:27:09Z</time>
      </trkpt>
      <trkpt lat="44.41937" lon="1.36761">
        <ele>250.329558</ele>
        <time>2019-01-17T15:27:18Z</time>
      </trkpt>
      <trkpt lat="44.41928" lon="1.36762">
        <ele>250.7295216</ele>
        <time>2019-01-17T15:27:25Z</time>
      </trkpt>
      <trkpt lat="44.4192" lon="1.36763">
        <ele>252.0294844</ele>
        <time>2019-01-17T15:27:33Z</time>
      </trkpt>
      <trkpt lat="44.41911" lon="1.36766">
        <ele>249.7293704</ele>
        <time>2019-01-17T15:27:41Z</time>
      </trkpt>
      <trkpt lat="44.41904" lon="1.36769">
        <ele>248.9292284</ele>
        <time>2019-01-17T15:27:48Z</time>
      </trkpt>
      <trkpt lat="44.41895" lon="1.36773">
        <ele>249.6290876</ele>
        <time>2019-01-17T15:27:57Z</time>
      </trkpt>
      <trkpt lat="44.41887" lon="1.36778">
        <ele>253.3288644</ele>
        <time>2019-01-17T15:28:07Z</time>
      </trkpt>
      <trkpt lat="44.4188" lon="1.36782">
        <ele>253.8287024</ele>
        <time>2019-01-17T15:28:15Z</time>
      </trkpt>
      <trkpt lat="44.41873" lon="1.36788">
        <ele>254.72847</ele>
        <time>2019-01-17T15:28:23Z</time>
      </trkpt>
      <trkpt lat="44.41866" lon="1.36795">
        <ele>254.728196</ele>
        <time>2019-01-17T15:28:30Z</time>
      </trkpt>
      <trkpt lat="44.41858" lon="1.36802">
        <ele>257.5279076</ele>
        <time>2019-01-17T15:28:39Z</time>
      </trkpt>
      <trkpt lat="44.41851" lon="1.36809">
        <ele>257.3276504</ele>
        <time>2019-01-17T15:28:47Z</time>
      </trkpt>
      <trkpt lat="44.41845" lon="1.36815">
        <ele>258.9274152</ele>
        <time>2019-01-17T15:28:55Z</time>
      </trkpt>
      <trkpt lat="44.41838" lon="1.36822">
        <ele>259.2271036</ele>
        <time>2019-01-17T15:29:03Z</time>
      </trkpt>
      <trkpt lat="44.41833" lon="1.3683">
        <ele>259.1268072</ele>
        <time>2019-01-17T15:29:09Z</time>
      </trkpt>
      <trkpt lat="44.41828" lon="1.36838">
        <ele>258.9265</ele>
        <time>2019-01-17T15:29:15Z</time>
      </trkpt>
      <trkpt lat="44.41824" lon="1.36845">
        <ele>257.2262032</ele>
        <time>2019-01-17T15:29:21Z</time>
      </trkpt>
      <trkpt lat="44.41819" lon="1.36853">
        <ele>257.6258804</ele>
        <time>2019-01-17T15:29:27Z</time>
      </trkpt>
      <trkpt lat="44.41814" lon="1.36862">
        <ele>260.1255136</ele>
        <time>2019-01-17T15:29:34Z</time>
      </trkpt>
      <trkpt lat="44.41809" lon="1.36871">
        <ele>261.5251476</ele>
        <time>2019-01-17T15:29:41Z</time>
      </trkpt>
      <trkpt lat="44.41803" lon="1.36879">
        <ele>260.9248244</ele>
        <time>2019-01-17T15:29:49Z</time>
      </trkpt>
      <trkpt lat="44.41797" lon="1.36888">
        <ele>261.5244664</ele>
        <time>2019-01-17T15:29:57Z</time>
      </trkpt>
      <trkpt lat="44.41793" lon="1.36896">
        <ele>263.2241576</ele>
        <time>2019-01-17T15:30:03Z</time>
      </trkpt>
      <trkpt lat="44.41788" lon="1.36906">
        <ele>263.0237548</ele>
        <time>2019-01-17T15:30:11Z</time>
      </trkpt>
      <trkpt lat="44.41782" lon="1.36915">
        <ele>262.123416</ele>
        <time>2019-01-17T15:30:18Z</time>
      </trkpt>
      <trkpt lat="44.41776" lon="1.36923">
        <ele>262.5230664</ele>
        <time>2019-01-17T15:30:25Z</time>
      </trkpt>
      <trkpt lat="44.41771" lon="1.36932">
        <ele>264.1227184</ele>
        <time>2019-01-17T15:30:33Z</time>
      </trkpt>
      <trkpt lat="44.41765" lon="1.36941">
        <ele>264.5223464</ele>
        <time>2019-01-17T15:30:42Z</time>
      </trkpt>
      <trkpt lat="44.41758" lon="1.36948">
        <ele>260.6221008</ele>
        <time>2019-01-17T15:30:50Z</time>
      </trkpt>
      <trkpt lat="44.41753" lon="1.36955">
        <ele>256.8218164</ele>
        <time>2019-01-17T15:30:57Z</time>
      </trkpt>
      <trkpt lat="44.41749" lon="1.36962">
        <ele>256.32152</ele>
        <time>2019-01-17T15:31:03Z</time>
      </trkpt>
      <trkpt lat="44.41745" lon="1.3697">
        <ele>257.7211848</ele>
        <time>2019-01-17T15:31:09Z</time>
      </trkpt>
      <trkpt lat="44.4174" lon="1.3698">
        <ele>258.920814</ele>
        <time>2019-01-17T15:31:16Z</time>
      </trkpt>
      <trkpt lat="44.41735" lon="1.36989">
        <ele>260.7204232</ele>
        <time>2019-01-17T15:31:24Z</time>
      </trkpt>
      <trkpt lat="44.41729" lon="1.36998">
        <ele>260.120064</ele>
        <time>2019-01-17T15:31:33Z</time>
      </trkpt>
      <trkpt lat="44.41723" lon="1.37007">
        <ele>261.019708</ele>
        <time>2019-01-17T15:31:41Z</time>
      </trkpt>
      <trkpt lat="44.41719" lon="1.37016">
        <ele>262.3193592</ele>
        <time>2019-01-17T15:31:48Z</time>
      </trkpt>
      <trkpt lat="44.41714" lon="1.37025">
        <ele>262.6189904</ele>
        <time>2019-01-17T15:31:55Z</time>
      </trkpt>
      <trkpt lat="44.41709" lon="1.37034">
        <ele>263.7186272</ele>
        <time>2019-01-17T15:32:03Z</time>
      </trkpt>
      <trkpt lat="44.41703" lon="1.37043">
        <ele>264.5182772</ele>
        <time>2019-01-17T15:32:11Z</time>
      </trkpt>
      <trkpt lat="44.41698" lon="1.37052">
        <ele>264.5179248</ele>
        <time>2019-01-17T15:32:18Z</time>
      </trkpt>
      <trkpt lat="44.41693" lon="1.37062">
        <ele>265.1175304</ele>
        <time>2019-01-17T15:32:26Z</time>
      </trkpt>
      <trkpt lat="44.41689" lon="1.37072">
        <ele>267.6171408</ele>
        <time>2019-01-17T15:32:33Z</time>
      </trkpt>
      <trkpt lat="44.41685" lon="1.37081">
        <ele>270.9167672</ele>
        <time>2019-01-17T15:32:40Z</time>
      </trkpt>
      <trkpt lat="44.41679" lon="1.3709">
        <ele>272.1163976</ele>
        <time>2019-01-17T15:32:48Z</time>
      </trkpt>
      <trkpt lat="44.41673" lon="1.37099">
        <ele>270.4160496</ele>
        <time>2019-01-17T15:32:55Z</time>
      </trkpt>
      <trkpt lat="44.41668" lon="1.37106">
        <ele>269.7157604</ele>
        <time>2019-01-17T15:33:01Z</time>
      </trkpt>
      <trkpt lat="44.41662" lon="1.37114">
        <ele>269.8154536</ele>
        <time>2019-01-17T15:33:08Z</time>
      </trkpt>
      <trkpt lat="44.41657" lon="1.37122">
        <ele>269.615132</ele>
        <time>2019-01-17T15:33:15Z</time>
      </trkpt>
      <trkpt lat="44.41652" lon="1.37129">
        <ele>268.9148524</ele>
        <time>2019-01-17T15:33:21Z</time>
      </trkpt>
      <trkpt lat="44.41646" lon="1.37138">
        <ele>269.8144832</ele>
        <time>2019-01-17T15:33:29Z</time>
      </trkpt>
      <trkpt lat="44.41642" lon="1.37148">
        <ele>272.1140836</ele>
        <time>2019-01-17T15:33:37Z</time>
      </trkpt>
      <trkpt lat="44.41637" lon="1.37157">
        <ele>272.513726</ele>
        <time>2019-01-17T15:33:44Z</time>
      </trkpt>
      <trkpt lat="44.41632" lon="1.37165">
        <ele>272.3134068</ele>
        <time>2019-01-17T15:33:51Z</time>
      </trkpt>
      <trkpt lat="44.41627" lon="1.37173">
        <ele>271.9130964</ele>
        <time>2019-01-17T15:33:57Z</time>
      </trkpt>
      <trkpt lat="44.41623" lon="1.37182">
        <ele>272.9127056</ele>
        <time>2019-01-17T15:34:03Z</time>
      </trkpt>
      <trkpt lat="44.41619" lon="1.37191">
        <ele>273.1123776</ele>
        <time>2019-01-17T15:34:09Z</time>
      </trkpt>
      <trkpt lat="44.41614" lon="1.37198">
        <ele>272.412072</ele>
        <time>2019-01-17T15:34:15Z</time>
      </trkpt>
      <trkpt lat="44.4161" lon="1.37206">
        <ele>272.2117528</ele>
        <time>2019-01-17T15:34:21Z</time>
      </trkpt>
      <trkpt lat="44.41605" lon="1.37213">
        <ele>270.8114768</ele>
        <time>2019-01-17T15:34:27Z</time>
      </trkpt>
      <trkpt lat="44.41601" lon="1.37224">
        <ele>268.2110588</ele>
        <time>2019-01-17T15:34:35Z</time>
      </trkpt>
      <trkpt lat="44.41595" lon="1.37231">
        <ele>267.3107712</ele>
        <time>2019-01-17T15:34:56Z</time>
      </trkpt>
      <trkpt lat="44.41589" lon="1.37238">
        <ele>265.5104912</ele>
        <time>2019-01-17T15:35:03Z</time>
      </trkpt>
      <trkpt lat="44.41585" lon="1.37245">
        <ele>266.01019</ele>
        <time>2019-01-17T15:35:09Z</time>
      </trkpt>
      <trkpt lat="44.4158" lon="1.37255">
        <ele>265.8097852</ele>
        <time>2019-01-17T15:35:17Z</time>
      </trkpt>
      <trkpt lat="44.41575" lon="1.37266">
        <ele>265.0093808</ele>
        <time>2019-01-17T15:35:24Z</time>
      </trkpt>
      <trkpt lat="44.41571" lon="1.37273">
        <ele>264.3090728</ele>
        <time>2019-01-17T15:35:30Z</time>
      </trkpt>
      <trkpt lat="44.41567" lon="1.37283">
        <ele>265.1086912</ele>
        <time>2019-01-17T15:35:36Z</time>
      </trkpt>
      <trkpt lat="44.41563" lon="1.37292">
        <ele>268.0083072</ele>
        <time>2019-01-17T15:35:42Z</time>
      </trkpt>
      <trkpt lat="44.41558" lon="1.37301">
        <ele>269.0079648</ele>
        <time>2019-01-17T15:35:50Z</time>
      </trkpt>
      <trkpt lat="44.41552" lon="1.37309">
        <ele>268.8076496</ele>
        <time>2019-01-17T15:35:57Z</time>
      </trkpt>
      <trkpt lat="44.41547" lon="1.37317">
        <ele>269.707308</ele>
        <time>2019-01-17T15:36:05Z</time>
      </trkpt>
      <trkpt lat="44.41542" lon="1.37327">
        <ele>271.3069056</ele>
        <time>2019-01-17T15:36:11Z</time>
      </trkpt>
      <trkpt lat="44.4154" lon="1.37337">
        <ele>272.7065388</ele>
        <time>2019-01-17T15:36:15Z</time>
      </trkpt>
      <trkpt lat="44.41536" lon="1.37347">
        <ele>273.70612</ele>
        <time>2019-01-17T15:36:21Z</time>
      </trkpt>
      <trkpt lat="44.41532" lon="1.37357">
        <ele>275.2057024</ele>
        <time>2019-01-17T15:36:29Z</time>
      </trkpt>
      <trkpt lat="44.41529" lon="1.37367">
        <ele>274.30533</ele>
        <time>2019-01-17T15:36:43Z</time>
      </trkpt>
      <trkpt lat="44.41526" lon="1.37375">
        <ele>274.2049856</ele>
        <time>2019-01-17T15:36:51Z</time>
      </trkpt>
      <trkpt lat="44.41521" lon="1.37385">
        <ele>273.8046112</ele>
        <time>2019-01-17T15:37:00Z</time>
      </trkpt>
      <trkpt lat="44.41515" lon="1.37392">
        <ele>276.9043148</ele>
        <time>2019-01-17T15:37:22Z</time>
      </trkpt>
      <trkpt lat="44.41509" lon="1.37401">
        <ele>278.1039688</ele>
        <time>2019-01-17T15:37:30Z</time>
      </trkpt>
      <trkpt lat="44.41505" lon="1.37408">
        <ele>279.1036768</ele>
        <time>2019-01-17T15:37:37Z</time>
      </trkpt>
      <trkpt lat="44.415" lon="1.37418">
        <ele>278.9032824</ele>
        <time>2019-01-17T15:37:44Z</time>
      </trkpt>
      <trkpt lat="44.41494" lon="1.37426">
        <ele>280.1029456</ele>
        <time>2019-01-17T15:37:51Z</time>
      </trkpt>
      <trkpt lat="44.41489" lon="1.37435">
        <ele>280.0025928</ele>
        <time>2019-01-17T15:37:58Z</time>
      </trkpt>
      <trkpt lat="44.41484" lon="1.37444">
        <ele>281.4022496</ele>
        <time>2019-01-17T15:38:04Z</time>
      </trkpt>
      <trkpt lat="44.4148" lon="1.37453">
        <ele>279.7018816</ele>
        <time>2019-01-17T15:38:11Z</time>
      </trkpt>
      <trkpt lat="44.41474" lon="1.37461">
        <ele>278.3015556</ele>
        <time>2019-01-17T15:38:25Z</time>
      </trkpt>
      <trkpt lat="44.41467" lon="1.37468">
        <ele>272.201292</ele>
        <time>2019-01-17T15:38:37Z</time>
      </trkpt>
      <trkpt lat="44.41459" lon="1.37473">
        <ele>268.701076</ele>
        <time>2019-01-17T15:38:52Z</time>
      </trkpt>
      <trkpt lat="44.41451" lon="1.37477">
        <ele>267.3009044</ele>
        <time>2019-01-17T15:39:02Z</time>
      </trkpt>
      <trkpt lat="44.41451" lon="1.3749">
        <ele>267.900414</ele>
        <time>2019-01-17T15:39:48Z</time>
      </trkpt>
      <trkpt lat="44.41454" lon="1.37499">
        <ele>276.700046</ele>
        <time>2019-01-17T15:40:21Z</time>
      </trkpt>
      <trkpt lat="44.41454" lon="1.3751">
        <ele>276.8995828</ele>
        <time>2019-01-17T15:40:29Z</time>
      </trkpt>
      <trkpt lat="44.41447" lon="1.37509">
        <ele>277.6996332</ele>
        <time>2019-01-17T15:40:54Z</time>
      </trkpt>
      <trkpt lat="44.41443" lon="1.37498">
        <ele>279.800068</ele>
        <time>2019-01-17T15:41:01Z</time>
      </trkpt>
      <trkpt lat="44.41439" lon="1.37487">
        <ele>280.3005084</ele>
        <time>2019-01-17T15:41:08Z</time>
      </trkpt>
      <trkpt lat="44.41439" lon="1.37477">
        <ele>278.7009308</ele>
        <time>2019-01-17T15:41:16Z</time>
      </trkpt>
      <trkpt lat="44.41437" lon="1.37466">
        <ele>279.001364</ele>
        <time>2019-01-17T15:41:22Z</time>
      </trkpt>
      <trkpt lat="44.41435" lon="1.37454">
        <ele>278.101822</ele>
        <time>2019-01-17T15:41:29Z</time>
      </trkpt>
      <trkpt lat="44.41433" lon="1.37445">
        <ele>277.7021948</ele>
        <time>2019-01-17T15:41:34Z</time>
      </trkpt>
      <trkpt lat="44.41432" lon="1.37433">
        <ele>275.302688</ele>
        <time>2019-01-17T15:41:41Z</time>
      </trkpt>
      <trkpt lat="44.41431" lon="1.37421">
        <ele>273.4031604</ele>
        <time>2019-01-17T15:41:49Z</time>
      </trkpt>
      <trkpt lat="44.41428" lon="1.37411">
        <ele>275.0035464</ele>
        <time>2019-01-17T15:41:54Z</time>
      </trkpt>
      <trkpt lat="44.41425" lon="1.37403">
        <ele>277.0038828</ele>
        <time>2019-01-17T15:42:00Z</time>
      </trkpt>
      <trkpt lat="44.41421" lon="1.37392">
        <ele>279.3043276</ele>
        <time>2019-01-17T15:42:09Z</time>
      </trkpt>
      <trkpt lat="44.41419" lon="1.37382">
        <ele>281.2047268</ele>
        <time>2019-01-17T15:42:16Z</time>
      </trkpt>
      <trkpt lat="44.41417" lon="1.37372">
        <ele>282.8051144</ele>
        <time>2019-01-17T15:42:21Z</time>
      </trkpt>
      <trkpt lat="44.41415" lon="1.3736">
        <ele>283.8056</ele>
        <time>2019-01-17T15:42:30Z</time>
      </trkpt>
      <trkpt lat="44.41413" lon="1.37349">
        <ele>284.20604</ele>
        <time>2019-01-17T15:42:37Z</time>
      </trkpt>
      <trkpt lat="44.41411" lon="1.3734">
        <ele>285.30641</ele>
        <time>2019-01-17T15:42:42Z</time>
      </trkpt>
      <trkpt lat="44.41409" lon="1.37328">
        <ele>287.7068892</ele>
        <time>2019-01-17T15:42:51Z</time>
      </trkpt>
      <trkpt lat="44.41406" lon="1.37318">
        <ele>287.8072752</ele>
        <time>2019-01-17T15:42:57Z</time>
      </trkpt>
      <trkpt lat="44.41404" lon="1.37308">
        <ele>288.7076728</ele>
        <time>2019-01-17T15:43:06Z</time>
      </trkpt>
      <trkpt lat="44.41403" lon="1.37296">
        <ele>288.3081668</ele>
        <time>2019-01-17T15:43:14Z</time>
      </trkpt>
      <trkpt lat="44.414" lon="1.37286">
        <ele>286.8085484</ele>
        <time>2019-01-17T15:43:21Z</time>
      </trkpt>
      <trkpt lat="44.41399" lon="1.37274">
        <ele>286.80903</ele>
        <time>2019-01-17T15:43:29Z</time>
      </trkpt>
      <trkpt lat="44.41398" lon="1.37263">
        <ele>287.509468</ele>
        <time>2019-01-17T15:43:37Z</time>
      </trkpt>
      <trkpt lat="44.41398" lon="1.37252">
        <ele>288.10991</ele>
        <time>2019-01-17T15:43:44Z</time>
      </trkpt>
      <trkpt lat="44.41401" lon="1.37241">
        <ele>288.8103628</ele>
        <time>2019-01-17T15:43:51Z</time>
      </trkpt>
      <trkpt lat="44.41402" lon="1.37229">
        <ele>291.2108364</ele>
        <time>2019-01-17T15:43:59Z</time>
      </trkpt>
      <trkpt lat="44.41404" lon="1.37219">
        <ele>291.91126</ele>
        <time>2019-01-17T15:44:06Z</time>
      </trkpt>
      <trkpt lat="44.4141" lon="1.37209">
        <ele>291.4116244</ele>
        <time>2019-01-17T15:44:16Z</time>
      </trkpt>
      <trkpt lat="44.41418" lon="1.37206">
        <ele>288.9117432</ele>
        <time>2019-01-17T15:44:26Z</time>
      </trkpt>
      <trkpt lat="44.41426" lon="1.37201">
        <ele>288.0119788</ele>
        <time>2019-01-17T15:44:40Z</time>
      </trkpt>
      <trkpt lat="44.41433" lon="1.37198">
        <ele>284.612078</ele>
        <time>2019-01-17T15:44:48Z</time>
      </trkpt>
      <trkpt lat="44.4144" lon="1.37191">
        <ele>286.912342</ele>
        <time>2019-01-17T15:44:56Z</time>
      </trkpt>
      <trkpt lat="44.41447" lon="1.37185">
        <ele>288.0125844</ele>
        <time>2019-01-17T15:45:04Z</time>
      </trkpt>
      <trkpt lat="44.41454" lon="1.3718">
        <ele>288.4128092</ele>
        <time>2019-01-17T15:45:12Z</time>
      </trkpt>
      <trkpt lat="44.41461" lon="1.37177">
        <ele>288.0129416</ele>
        <time>2019-01-17T15:45:21Z</time>
      </trkpt>
      <trkpt lat="44.4147" lon="1.37173">
        <ele>287.8130708</ele>
        <time>2019-01-17T15:45:29Z</time>
      </trkpt>
      <trkpt lat="44.41477" lon="1.37167">
        <ele>288.1133168</ele>
        <time>2019-01-17T15:45:37Z</time>
      </trkpt>
      <trkpt lat="44.41482" lon="1.37159">
        <ele>287.5136596</ele>
        <time>2019-01-17T15:45:45Z</time>
      </trkpt>
      <trkpt lat="44.41485" lon="1.37147">
        <ele>287.0141276</ele>
        <time>2019-01-17T15:45:54Z</time>
      </trkpt>
      <trkpt lat="44.41487" lon="1.37135">
        <ele>287.8146076</ele>
        <time>2019-01-17T15:46:02Z</time>
      </trkpt>
      <trkpt lat="44.41487" lon="1.37123">
        <ele>288.4150852</ele>
        <time>2019-01-17T15:46:13Z</time>
      </trkpt>
      <trkpt lat="44.41485" lon="1.37113">
        <ele>287.6154996</ele>
        <time>2019-01-17T15:46:21Z</time>
      </trkpt>
      <trkpt lat="44.41482" lon="1.37102">
        <ele>290.2159196</ele>
        <time>2019-01-17T15:47:24Z</time>
      </trkpt>
      <trkpt lat="44.41482" lon="1.37102">
        <ele>290.2159196</ele>
        <time>2019-01-17T15:47:25Z</time>
      </trkpt>
    </trkseg>
  </trk>
</gpx>